<?xml version="1.0" encoding="UTF-8" standalone="no" ?>
<gpx xmlns="http://www.topografix.com/GPX/1/1" xmlns:xsi="http://www.w3.org/2001/XMLSchema-instance" xsi:schemaLocation="http://www.topografix.com/GPX/1/1 http://www.topografix.com/GPX/1/1/gpx.xsd" version="1.1" creator="VisuGPX - https://www.visugpx.com">
  <metadata>
    <name>Tracé actuel: 12 JUIL 2020 08:01</name>
    <desc><![CDATA[belle marche dominicale avec le fond gabrielle
]]></desc>
  </metadata>
  <trk>
    <name><![CDATA[Tracé actuel: 12 JUIL 2020 08:01]]></name>
    <trkseg>
      <trkpt lat="49.63451" lon="4.98233">
        <ele>193.36</ele>
        <time>2020-07-12T06:01:51Z</time>
      </trkpt>
      <trkpt lat="49.63447" lon="4.98242">
        <ele>196.73</ele>
        <time>2020-07-12T06:02:00Z</time>
      </trkpt>
      <trkpt lat="49.63439" lon="4.98254">
        <ele>199.13</ele>
        <time>2020-07-12T06:02:14Z</time>
      </trkpt>
      <trkpt lat="49.63438" lon="4.98256">
        <ele>198.65</ele>
        <time>2020-07-12T06:02:16Z</time>
      </trkpt>
      <trkpt lat="49.63425" lon="4.98269">
        <ele>200.09</ele>
        <time>2020-07-12T06:02:30Z</time>
      </trkpt>
      <trkpt lat="49.6342" lon="4.98279">
        <ele>202.01</ele>
        <time>2020-07-12T06:02:40Z</time>
      </trkpt>
      <trkpt lat="49.6341" lon="4.98288">
        <ele>202.49</ele>
        <time>2020-07-12T06:02:54Z</time>
      </trkpt>
      <trkpt lat="49.63399" lon="4.98301">
        <ele>203.94</ele>
        <time>2020-07-12T06:03:09Z</time>
      </trkpt>
      <trkpt lat="49.63387" lon="4.98312">
        <ele>205.38</ele>
        <time>2020-07-12T06:03:22Z</time>
      </trkpt>
      <trkpt lat="49.63384" lon="4.98314">
        <ele>205.86</ele>
        <time>2020-07-12T06:03:26Z</time>
      </trkpt>
      <trkpt lat="49.63375" lon="4.9832">
        <ele>206.82</ele>
        <time>2020-07-12T06:03:37Z</time>
      </trkpt>
      <trkpt lat="49.63366" lon="4.98327">
        <ele>207.3</ele>
        <time>2020-07-12T06:03:48Z</time>
      </trkpt>
      <trkpt lat="49.63357" lon="4.98335">
        <ele>207.78</ele>
        <time>2020-07-12T06:03:58Z</time>
      </trkpt>
      <trkpt lat="49.63346" lon="4.98343">
        <ele>207.78</ele>
        <time>2020-07-12T06:04:11Z</time>
      </trkpt>
      <trkpt lat="49.63336" lon="4.98345">
        <ele>207.78</ele>
        <time>2020-07-12T06:04:24Z</time>
      </trkpt>
      <trkpt lat="49.63325" lon="4.98344">
        <ele>207.3</ele>
        <time>2020-07-12T06:04:37Z</time>
      </trkpt>
      <trkpt lat="49.63315" lon="4.98342">
        <ele>212.59</ele>
        <time>2020-07-12T06:04:47Z</time>
      </trkpt>
      <trkpt lat="49.63304" lon="4.98344">
        <ele>206.34</ele>
        <time>2020-07-12T06:04:59Z</time>
      </trkpt>
      <trkpt lat="49.63296" lon="4.98344">
        <ele>205.86</ele>
        <time>2020-07-12T06:05:11Z</time>
      </trkpt>
      <trkpt lat="49.63293" lon="4.98344">
        <ele>205.38</ele>
        <time>2020-07-12T06:05:25Z</time>
      </trkpt>
      <trkpt lat="49.63286" lon="4.98341">
        <ele>202.98</ele>
        <time>2020-07-12T06:05:36Z</time>
      </trkpt>
      <trkpt lat="49.63273" lon="4.98345">
        <ele>199.13</ele>
        <time>2020-07-12T06:05:49Z</time>
      </trkpt>
      <trkpt lat="49.63259" lon="4.98345">
        <ele>197.69</ele>
        <time>2020-07-12T06:06:01Z</time>
      </trkpt>
      <trkpt lat="49.63246" lon="4.98343">
        <ele>196.73</ele>
        <time>2020-07-12T06:06:13Z</time>
      </trkpt>
      <trkpt lat="49.63234" lon="4.98342">
        <ele>195.28</ele>
        <time>2020-07-12T06:06:26Z</time>
      </trkpt>
      <trkpt lat="49.63222" lon="4.98338">
        <ele>193.84</ele>
        <time>2020-07-12T06:06:39Z</time>
      </trkpt>
      <trkpt lat="49.63212" lon="4.98336">
        <ele>195.77</ele>
        <time>2020-07-12T06:06:50Z</time>
      </trkpt>
      <trkpt lat="49.632" lon="4.98333">
        <ele>193.84</ele>
        <time>2020-07-12T06:07:02Z</time>
      </trkpt>
      <trkpt lat="49.63187" lon="4.98337">
        <ele>191.44</ele>
        <time>2020-07-12T06:07:15Z</time>
      </trkpt>
      <trkpt lat="49.63177" lon="4.98336">
        <ele>192.88</ele>
        <time>2020-07-12T06:07:25Z</time>
      </trkpt>
      <trkpt lat="49.63165" lon="4.98335">
        <ele>191.92</ele>
        <time>2020-07-12T06:07:38Z</time>
      </trkpt>
      <trkpt lat="49.63153" lon="4.98333">
        <ele>189.04</ele>
        <time>2020-07-12T06:07:51Z</time>
      </trkpt>
      <trkpt lat="49.63148" lon="4.98334">
        <ele>190</ele>
        <time>2020-07-12T06:08:02Z</time>
      </trkpt>
      <trkpt lat="49.63135" lon="4.98333">
        <ele>192.4</ele>
        <time>2020-07-12T06:08:15Z</time>
      </trkpt>
      <trkpt lat="49.63124" lon="4.9833">
        <ele>194.8</ele>
        <time>2020-07-12T06:08:27Z</time>
      </trkpt>
      <trkpt lat="49.63115" lon="4.98335">
        <ele>199.13</ele>
        <time>2020-07-12T06:08:37Z</time>
      </trkpt>
      <trkpt lat="49.63098" lon="4.98334">
        <ele>205.38</ele>
        <time>2020-07-12T06:08:52Z</time>
      </trkpt>
      <trkpt lat="49.63085" lon="4.98329">
        <ele>210.67</ele>
        <time>2020-07-12T06:09:07Z</time>
      </trkpt>
      <trkpt lat="49.63077" lon="4.98326">
        <ele>210.19</ele>
        <time>2020-07-12T06:09:16Z</time>
      </trkpt>
      <trkpt lat="49.63062" lon="4.98328">
        <ele>209.22</ele>
        <time>2020-07-12T06:09:30Z</time>
      </trkpt>
      <trkpt lat="49.63046" lon="4.98324">
        <ele>207.78</ele>
        <time>2020-07-12T06:09:46Z</time>
      </trkpt>
      <trkpt lat="49.63033" lon="4.98321">
        <ele>206.82</ele>
        <time>2020-07-12T06:09:59Z</time>
      </trkpt>
      <trkpt lat="49.63022" lon="4.9832">
        <ele>206.82</ele>
        <time>2020-07-12T06:10:10Z</time>
      </trkpt>
      <trkpt lat="49.63012" lon="4.9832">
        <ele>206.82</ele>
        <time>2020-07-12T06:10:23Z</time>
      </trkpt>
      <trkpt lat="49.62998" lon="4.98318">
        <ele>209.22</ele>
        <time>2020-07-12T06:10:37Z</time>
      </trkpt>
      <trkpt lat="49.62992" lon="4.98316">
        <ele>210.19</ele>
        <time>2020-07-12T06:10:44Z</time>
      </trkpt>
      <trkpt lat="49.62979" lon="4.98315">
        <ele>213.55</ele>
        <time>2020-07-12T06:10:56Z</time>
      </trkpt>
      <trkpt lat="49.62969" lon="4.98317">
        <ele>214.03</ele>
        <time>2020-07-12T06:11:08Z</time>
      </trkpt>
      <trkpt lat="49.62959" lon="4.98314">
        <ele>216.43</ele>
        <time>2020-07-12T06:11:19Z</time>
      </trkpt>
      <trkpt lat="49.62954" lon="4.98312">
        <ele>217.4</ele>
        <time>2020-07-12T06:11:25Z</time>
      </trkpt>
      <trkpt lat="49.62941" lon="4.98315">
        <ele>220.76</ele>
        <time>2020-07-12T06:11:38Z</time>
      </trkpt>
      <trkpt lat="49.6294" lon="4.98316">
        <ele>220.76</ele>
        <time>2020-07-12T06:11:40Z</time>
      </trkpt>
      <trkpt lat="49.62938" lon="4.98317">
        <ele>221.24</ele>
        <time>2020-07-12T06:11:42Z</time>
      </trkpt>
      <trkpt lat="49.62934" lon="4.98318">
        <ele>221.72</ele>
        <time>2020-07-12T06:11:46Z</time>
      </trkpt>
      <trkpt lat="49.62919" lon="4.98326">
        <ele>223.64</ele>
        <time>2020-07-12T06:12:01Z</time>
      </trkpt>
      <trkpt lat="49.62908" lon="4.9833">
        <ele>227.97</ele>
        <time>2020-07-12T06:12:13Z</time>
      </trkpt>
      <trkpt lat="49.62895" lon="4.98334">
        <ele>229.89</ele>
        <time>2020-07-12T06:12:27Z</time>
      </trkpt>
      <trkpt lat="49.62882" lon="4.98336">
        <ele>229.41</ele>
        <time>2020-07-12T06:12:41Z</time>
      </trkpt>
      <trkpt lat="49.62875" lon="4.98336">
        <ele>229.89</ele>
        <time>2020-07-12T06:12:48Z</time>
      </trkpt>
      <trkpt lat="49.62862" lon="4.98343">
        <ele>227.97</ele>
        <time>2020-07-12T06:13:05Z</time>
      </trkpt>
      <trkpt lat="49.6285" lon="4.9835">
        <ele>227.97</ele>
        <time>2020-07-12T06:13:19Z</time>
      </trkpt>
      <trkpt lat="49.62837" lon="4.98354">
        <ele>228.93</ele>
        <time>2020-07-12T06:13:32Z</time>
      </trkpt>
      <trkpt lat="49.62823" lon="4.98366">
        <ele>228.45</ele>
        <time>2020-07-12T06:13:47Z</time>
      </trkpt>
      <trkpt lat="49.6281" lon="4.98376">
        <ele>226.53</ele>
        <time>2020-07-12T06:14:02Z</time>
      </trkpt>
      <trkpt lat="49.62797" lon="4.98386">
        <ele>224.61</ele>
        <time>2020-07-12T06:14:18Z</time>
      </trkpt>
      <trkpt lat="49.62781" lon="4.98399">
        <ele>229.89</ele>
        <time>2020-07-12T06:14:34Z</time>
      </trkpt>
      <trkpt lat="49.6277" lon="4.98409">
        <ele>232.78</ele>
        <time>2020-07-12T06:14:53Z</time>
      </trkpt>
      <trkpt lat="49.62763" lon="4.98413">
        <ele>232.3</ele>
        <time>2020-07-12T06:15:02Z</time>
      </trkpt>
      <trkpt lat="49.6275" lon="4.98423">
        <ele>233.74</ele>
        <time>2020-07-12T06:15:16Z</time>
      </trkpt>
      <trkpt lat="49.62741" lon="4.98431">
        <ele>238.06</ele>
        <time>2020-07-12T06:15:28Z</time>
      </trkpt>
      <trkpt lat="49.6273" lon="4.9844">
        <ele>242.39</ele>
        <time>2020-07-12T06:15:41Z</time>
      </trkpt>
      <trkpt lat="49.6272" lon="4.98449">
        <ele>246.72</ele>
        <time>2020-07-12T06:15:55Z</time>
      </trkpt>
      <trkpt lat="49.62709" lon="4.98457">
        <ele>248.16</ele>
        <time>2020-07-12T06:16:07Z</time>
      </trkpt>
      <trkpt lat="49.62697" lon="4.98468">
        <ele>251.52</ele>
        <time>2020-07-12T06:16:21Z</time>
      </trkpt>
      <trkpt lat="49.62684" lon="4.98479">
        <ele>250.56</ele>
        <time>2020-07-12T06:16:37Z</time>
      </trkpt>
      <trkpt lat="49.62668" lon="4.98489">
        <ele>253.44</ele>
        <time>2020-07-12T06:16:53Z</time>
      </trkpt>
      <trkpt lat="49.62654" lon="4.98503">
        <ele>256.33</ele>
        <time>2020-07-12T06:17:11Z</time>
      </trkpt>
      <trkpt lat="49.6264" lon="4.98514">
        <ele>261.14</ele>
        <time>2020-07-12T06:17:28Z</time>
      </trkpt>
      <trkpt lat="49.62627" lon="4.98527">
        <ele>258.25</ele>
        <time>2020-07-12T06:17:46Z</time>
      </trkpt>
      <trkpt lat="49.62613" lon="4.98539">
        <ele>256.33</ele>
        <time>2020-07-12T06:18:01Z</time>
      </trkpt>
      <trkpt lat="49.62598" lon="4.98551">
        <ele>255.37</ele>
        <time>2020-07-12T06:18:18Z</time>
      </trkpt>
      <trkpt lat="49.62585" lon="4.9856">
        <ele>256.33</ele>
        <time>2020-07-12T06:18:33Z</time>
      </trkpt>
      <trkpt lat="49.62574" lon="4.98571">
        <ele>256.81</ele>
        <time>2020-07-12T06:18:48Z</time>
      </trkpt>
      <trkpt lat="49.62562" lon="4.98581">
        <ele>261.14</ele>
        <time>2020-07-12T06:19:01Z</time>
      </trkpt>
      <trkpt lat="49.62552" lon="4.9858">
        <ele>261.62</ele>
        <time>2020-07-12T06:19:14Z</time>
      </trkpt>
      <trkpt lat="49.62552" lon="4.98577">
        <ele>261.62</ele>
        <time>2020-07-12T06:19:17Z</time>
      </trkpt>
      <trkpt lat="49.62552" lon="4.98566">
        <ele>262.58</ele>
        <time>2020-07-12T06:19:26Z</time>
      </trkpt>
      <trkpt lat="49.62551" lon="4.98559">
        <ele>263.54</ele>
        <time>2020-07-12T06:19:33Z</time>
      </trkpt>
      <trkpt lat="49.62535" lon="4.98558">
        <ele>260.17</ele>
        <time>2020-07-12T06:19:46Z</time>
      </trkpt>
      <trkpt lat="49.6252" lon="4.98563">
        <ele>259.69</ele>
        <time>2020-07-12T06:20:01Z</time>
      </trkpt>
      <trkpt lat="49.62506" lon="4.9856">
        <ele>258.73</ele>
        <time>2020-07-12T06:20:15Z</time>
      </trkpt>
      <trkpt lat="49.62494" lon="4.98553">
        <ele>258.25</ele>
        <time>2020-07-12T06:20:28Z</time>
      </trkpt>
      <trkpt lat="49.62483" lon="4.98545">
        <ele>258.25</ele>
        <time>2020-07-12T06:20:41Z</time>
      </trkpt>
      <trkpt lat="49.62473" lon="4.98537">
        <ele>258.25</ele>
        <time>2020-07-12T06:20:52Z</time>
      </trkpt>
      <trkpt lat="49.62464" lon="4.98532">
        <ele>257.29</ele>
        <time>2020-07-12T06:21:00Z</time>
      </trkpt>
      <trkpt lat="49.62448" lon="4.98519">
        <ele>257.77</ele>
        <time>2020-07-12T06:21:18Z</time>
      </trkpt>
      <trkpt lat="49.62436" lon="4.98509">
        <ele>259.21</ele>
        <time>2020-07-12T06:21:32Z</time>
      </trkpt>
      <trkpt lat="49.62422" lon="4.985">
        <ele>259.21</ele>
        <time>2020-07-12T06:21:45Z</time>
      </trkpt>
      <trkpt lat="49.62411" lon="4.98491">
        <ele>261.62</ele>
        <time>2020-07-12T06:21:59Z</time>
      </trkpt>
      <trkpt lat="49.62405" lon="4.98486">
        <ele>263.54</ele>
        <time>2020-07-12T06:22:05Z</time>
      </trkpt>
      <trkpt lat="49.62391" lon="4.98477">
        <ele>267.86</ele>
        <time>2020-07-12T06:22:20Z</time>
      </trkpt>
      <trkpt lat="49.62379" lon="4.98471">
        <ele>270.27</ele>
        <time>2020-07-12T06:22:33Z</time>
      </trkpt>
      <trkpt lat="49.62378" lon="4.98471">
        <ele>269.79</ele>
        <time>2020-07-12T06:22:34Z</time>
      </trkpt>
      <trkpt lat="49.62373" lon="4.98469">
        <ele>269.31</ele>
        <time>2020-07-12T06:22:38Z</time>
      </trkpt>
      <trkpt lat="49.62368" lon="4.98468">
        <ele>268.83</ele>
        <time>2020-07-12T06:22:43Z</time>
      </trkpt>
      <trkpt lat="49.62356" lon="4.98459">
        <ele>268.83</ele>
        <time>2020-07-12T06:22:56Z</time>
      </trkpt>
      <trkpt lat="49.62346" lon="4.98451">
        <ele>269.31</ele>
        <time>2020-07-12T06:23:08Z</time>
      </trkpt>
      <trkpt lat="49.62334" lon="4.9844">
        <ele>269.31</ele>
        <time>2020-07-12T06:23:21Z</time>
      </trkpt>
      <trkpt lat="49.62323" lon="4.98427">
        <ele>269.31</ele>
        <time>2020-07-12T06:23:34Z</time>
      </trkpt>
      <trkpt lat="49.62322" lon="4.98426">
        <ele>269.79</ele>
        <time>2020-07-12T06:23:37Z</time>
      </trkpt>
      <trkpt lat="49.62309" lon="4.9841">
        <ele>270.75</ele>
        <time>2020-07-12T06:23:52Z</time>
      </trkpt>
      <trkpt lat="49.62297" lon="4.98396">
        <ele>273.15</ele>
        <time>2020-07-12T06:24:07Z</time>
      </trkpt>
      <trkpt lat="49.6229" lon="4.98383">
        <ele>277.96</ele>
        <time>2020-07-12T06:24:19Z</time>
      </trkpt>
      <trkpt lat="49.62282" lon="4.98367">
        <ele>280.36</ele>
        <time>2020-07-12T06:24:32Z</time>
      </trkpt>
      <trkpt lat="49.62274" lon="4.98355">
        <ele>283.73</ele>
        <time>2020-07-12T06:24:44Z</time>
      </trkpt>
      <trkpt lat="49.62263" lon="4.98341">
        <ele>288.05</ele>
        <time>2020-07-12T06:24:58Z</time>
      </trkpt>
      <trkpt lat="49.62254" lon="4.98327">
        <ele>289.49</ele>
        <time>2020-07-12T06:25:13Z</time>
      </trkpt>
      <trkpt lat="49.62239" lon="4.98312">
        <ele>285.17</ele>
        <time>2020-07-12T06:25:31Z</time>
      </trkpt>
      <trkpt lat="49.62229" lon="4.98305">
        <ele>284.21</ele>
        <time>2020-07-12T06:25:47Z</time>
      </trkpt>
      <trkpt lat="49.62214" lon="4.98298">
        <ele>287.57</ele>
        <time>2020-07-12T06:26:05Z</time>
      </trkpt>
      <trkpt lat="49.62195" lon="4.98291">
        <ele>290.94</ele>
        <time>2020-07-12T06:26:24Z</time>
      </trkpt>
      <trkpt lat="49.62179" lon="4.98285">
        <ele>297.67</ele>
        <time>2020-07-12T06:26:43Z</time>
      </trkpt>
      <trkpt lat="49.62161" lon="4.98282">
        <ele>306.32</ele>
        <time>2020-07-12T06:27:01Z</time>
      </trkpt>
      <trkpt lat="49.62151" lon="4.9828">
        <ele>311.12</ele>
        <time>2020-07-12T06:27:13Z</time>
      </trkpt>
      <trkpt lat="49.6215" lon="4.98279">
        <ele>311.6</ele>
        <time>2020-07-12T06:27:16Z</time>
      </trkpt>
      <trkpt lat="49.62146" lon="4.98276">
        <ele>312.57</ele>
        <time>2020-07-12T06:27:20Z</time>
      </trkpt>
      <trkpt lat="49.62132" lon="4.98266">
        <ele>310.16</ele>
        <time>2020-07-12T06:27:30Z</time>
      </trkpt>
      <trkpt lat="49.62118" lon="4.98252">
        <ele>310.64</ele>
        <time>2020-07-12T06:27:46Z</time>
      </trkpt>
      <trkpt lat="49.62101" lon="4.98233">
        <ele>300.55</ele>
        <time>2020-07-12T06:28:00Z</time>
      </trkpt>
      <trkpt lat="49.62094" lon="4.9823">
        <ele>296.22</ele>
        <time>2020-07-12T06:28:06Z</time>
      </trkpt>
      <trkpt lat="49.62087" lon="4.98229">
        <ele>294.3</ele>
        <time>2020-07-12T06:28:12Z</time>
      </trkpt>
      <trkpt lat="49.62078" lon="4.98226">
        <ele>291.9</ele>
        <time>2020-07-12T06:28:21Z</time>
      </trkpt>
      <trkpt lat="49.62063" lon="4.98219">
        <ele>287.09</ele>
        <time>2020-07-12T06:28:35Z</time>
      </trkpt>
      <trkpt lat="49.6205" lon="4.98214">
        <ele>284.69</ele>
        <time>2020-07-12T06:28:47Z</time>
      </trkpt>
      <trkpt lat="49.62034" lon="4.98209">
        <ele>283.25</ele>
        <time>2020-07-12T06:29:00Z</time>
      </trkpt>
      <trkpt lat="49.62022" lon="4.98202">
        <ele>282.28</ele>
        <time>2020-07-12T06:29:12Z</time>
      </trkpt>
      <trkpt lat="49.62009" lon="4.98194">
        <ele>282.77</ele>
        <time>2020-07-12T06:29:26Z</time>
      </trkpt>
      <trkpt lat="49.61998" lon="4.98189">
        <ele>284.21</ele>
        <time>2020-07-12T06:29:39Z</time>
      </trkpt>
      <trkpt lat="49.61987" lon="4.98183">
        <ele>282.28</ele>
        <time>2020-07-12T06:29:51Z</time>
      </trkpt>
      <trkpt lat="49.61982" lon="4.98181">
        <ele>282.28</ele>
        <time>2020-07-12T06:29:57Z</time>
      </trkpt>
      <trkpt lat="49.61971" lon="4.98174">
        <ele>283.25</ele>
        <time>2020-07-12T06:30:10Z</time>
      </trkpt>
      <trkpt lat="49.6196" lon="4.98172">
        <ele>285.17</ele>
        <time>2020-07-12T06:30:24Z</time>
      </trkpt>
      <trkpt lat="49.6195" lon="4.98168">
        <ele>287.09</ele>
        <time>2020-07-12T06:30:38Z</time>
      </trkpt>
      <trkpt lat="49.61935" lon="4.98163">
        <ele>290.46</ele>
        <time>2020-07-12T06:30:55Z</time>
      </trkpt>
      <trkpt lat="49.61927" lon="4.98161">
        <ele>293.82</ele>
        <time>2020-07-12T06:31:12Z</time>
      </trkpt>
      <trkpt lat="49.61911" lon="4.98153">
        <ele>300.07</ele>
        <time>2020-07-12T06:31:30Z</time>
      </trkpt>
      <trkpt lat="49.61882" lon="4.98151">
        <ele>303.91</ele>
        <time>2020-07-12T06:31:50Z</time>
      </trkpt>
      <trkpt lat="49.61856" lon="4.98159">
        <ele>306.32</ele>
        <time>2020-07-12T06:32:07Z</time>
      </trkpt>
      <trkpt lat="49.61838" lon="4.98167">
        <ele>310.16</ele>
        <time>2020-07-12T06:32:24Z</time>
      </trkpt>
      <trkpt lat="49.61832" lon="4.98167">
        <ele>310.64</ele>
        <time>2020-07-12T06:32:31Z</time>
      </trkpt>
      <trkpt lat="49.61831" lon="4.9817">
        <ele>309.2</ele>
        <time>2020-07-12T06:32:46Z</time>
      </trkpt>
      <trkpt lat="49.61829" lon="4.9817">
        <ele>308.72</ele>
        <time>2020-07-12T06:33:02Z</time>
      </trkpt>
      <trkpt lat="49.61829" lon="4.98166">
        <ele>308.24</ele>
        <time>2020-07-12T06:33:07Z</time>
      </trkpt>
      <trkpt lat="49.61831" lon="4.98161">
        <ele>309.2</ele>
        <time>2020-07-12T06:33:11Z</time>
      </trkpt>
      <trkpt lat="49.61835" lon="4.98144">
        <ele>312.09</ele>
        <time>2020-07-12T06:33:25Z</time>
      </trkpt>
      <trkpt lat="49.61842" lon="4.98129">
        <ele>313.53</ele>
        <time>2020-07-12T06:33:38Z</time>
      </trkpt>
      <trkpt lat="49.61845" lon="4.98112">
        <ele>316.41</ele>
        <time>2020-07-12T06:33:51Z</time>
      </trkpt>
      <trkpt lat="49.61852" lon="4.98097">
        <ele>317.85</ele>
        <time>2020-07-12T06:34:06Z</time>
      </trkpt>
      <trkpt lat="49.61854" lon="4.98091">
        <ele>318.33</ele>
        <time>2020-07-12T06:34:11Z</time>
      </trkpt>
      <trkpt lat="49.61855" lon="4.98086">
        <ele>318.33</ele>
        <time>2020-07-12T06:34:14Z</time>
      </trkpt>
      <trkpt lat="49.61863" lon="4.98069">
        <ele>319.3</ele>
        <time>2020-07-12T06:34:27Z</time>
      </trkpt>
      <trkpt lat="49.61871" lon="4.98052">
        <ele>317.37</ele>
        <time>2020-07-12T06:34:39Z</time>
      </trkpt>
      <trkpt lat="49.61884" lon="4.98035">
        <ele>306.8</ele>
        <time>2020-07-12T06:34:52Z</time>
      </trkpt>
      <trkpt lat="49.61894" lon="4.98021">
        <ele>300.07</ele>
        <time>2020-07-12T06:35:06Z</time>
      </trkpt>
      <trkpt lat="49.61903" lon="4.98001">
        <ele>291.42</ele>
        <time>2020-07-12T06:35:21Z</time>
      </trkpt>
      <trkpt lat="49.61912" lon="4.97982">
        <ele>288.05</ele>
        <time>2020-07-12T06:35:34Z</time>
      </trkpt>
      <trkpt lat="49.61918" lon="4.97974">
        <ele>284.69</ele>
        <time>2020-07-12T06:35:43Z</time>
      </trkpt>
      <trkpt lat="49.6193" lon="4.97956">
        <ele>282.28</ele>
        <time>2020-07-12T06:35:58Z</time>
      </trkpt>
      <trkpt lat="49.61941" lon="4.9794">
        <ele>281.8</ele>
        <time>2020-07-12T06:36:12Z</time>
      </trkpt>
      <trkpt lat="49.61954" lon="4.97925">
        <ele>283.25</ele>
        <time>2020-07-12T06:36:29Z</time>
      </trkpt>
      <trkpt lat="49.61963" lon="4.97908">
        <ele>285.65</ele>
        <time>2020-07-12T06:36:43Z</time>
      </trkpt>
      <trkpt lat="49.61972" lon="4.97892">
        <ele>286.13</ele>
        <time>2020-07-12T06:36:57Z</time>
      </trkpt>
      <trkpt lat="49.61981" lon="4.97873">
        <ele>288.05</ele>
        <time>2020-07-12T06:37:12Z</time>
      </trkpt>
      <trkpt lat="49.61988" lon="4.97853">
        <ele>288.05</ele>
        <time>2020-07-12T06:37:26Z</time>
      </trkpt>
      <trkpt lat="49.61994" lon="4.97834">
        <ele>288.53</ele>
        <time>2020-07-12T06:37:38Z</time>
      </trkpt>
      <trkpt lat="49.62" lon="4.97815">
        <ele>289.01</ele>
        <time>2020-07-12T06:37:50Z</time>
      </trkpt>
      <trkpt lat="49.62006" lon="4.97787">
        <ele>288.05</ele>
        <time>2020-07-12T06:38:08Z</time>
      </trkpt>
      <trkpt lat="49.62008" lon="4.97763">
        <ele>286.13</ele>
        <time>2020-07-12T06:38:23Z</time>
      </trkpt>
      <trkpt lat="49.62012" lon="4.97742">
        <ele>285.65</ele>
        <time>2020-07-12T06:38:37Z</time>
      </trkpt>
      <trkpt lat="49.62017" lon="4.97717">
        <ele>286.13</ele>
        <time>2020-07-12T06:38:53Z</time>
      </trkpt>
      <trkpt lat="49.6202" lon="4.97694">
        <ele>286.13</ele>
        <time>2020-07-12T06:39:08Z</time>
      </trkpt>
      <trkpt lat="49.62023" lon="4.97674">
        <ele>285.65</ele>
        <time>2020-07-12T06:39:22Z</time>
      </trkpt>
      <trkpt lat="49.62026" lon="4.97648">
        <ele>284.21</ele>
        <time>2020-07-12T06:39:39Z</time>
      </trkpt>
      <trkpt lat="49.62028" lon="4.97628">
        <ele>282.28</ele>
        <time>2020-07-12T06:39:52Z</time>
      </trkpt>
      <trkpt lat="49.62029" lon="4.97626">
        <ele>282.77</ele>
        <time>2020-07-12T06:39:53Z</time>
      </trkpt>
      <trkpt lat="49.62029" lon="4.97619">
        <ele>283.25</ele>
        <time>2020-07-12T06:39:57Z</time>
      </trkpt>
      <trkpt lat="49.62031" lon="4.97592">
        <ele>283.73</ele>
        <time>2020-07-12T06:40:12Z</time>
      </trkpt>
      <trkpt lat="49.62031" lon="4.97588">
        <ele>283.25</ele>
        <time>2020-07-12T06:40:16Z</time>
      </trkpt>
      <trkpt lat="49.62032" lon="4.97581">
        <ele>283.25</ele>
        <time>2020-07-12T06:40:20Z</time>
      </trkpt>
      <trkpt lat="49.62031" lon="4.97561">
        <ele>282.77</ele>
        <time>2020-07-12T06:40:34Z</time>
      </trkpt>
      <trkpt lat="49.62032" lon="4.97546">
        <ele>280.84</ele>
        <time>2020-07-12T06:40:44Z</time>
      </trkpt>
      <trkpt lat="49.62033" lon="4.97537">
        <ele>280.36</ele>
        <time>2020-07-12T06:40:49Z</time>
      </trkpt>
      <trkpt lat="49.62035" lon="4.97515">
        <ele>278.92</ele>
        <time>2020-07-12T06:41:03Z</time>
      </trkpt>
      <trkpt lat="49.62028" lon="4.97505">
        <ele>278.44</ele>
        <time>2020-07-12T06:41:13Z</time>
      </trkpt>
      <trkpt lat="49.62012" lon="4.97504">
        <ele>275.07</ele>
        <time>2020-07-12T06:41:29Z</time>
      </trkpt>
      <trkpt lat="49.62003" lon="4.97504">
        <ele>275.07</ele>
        <time>2020-07-12T06:41:40Z</time>
      </trkpt>
      <trkpt lat="49.61986" lon="4.97504">
        <ele>273.63</ele>
        <time>2020-07-12T06:41:56Z</time>
      </trkpt>
      <trkpt lat="49.61969" lon="4.97504">
        <ele>271.23</ele>
        <time>2020-07-12T06:42:12Z</time>
      </trkpt>
      <trkpt lat="49.61956" lon="4.97505">
        <ele>270.27</ele>
        <time>2020-07-12T06:42:25Z</time>
      </trkpt>
      <trkpt lat="49.61942" lon="4.97505">
        <ele>269.31</ele>
        <time>2020-07-12T06:42:39Z</time>
      </trkpt>
      <trkpt lat="49.61928" lon="4.97505">
        <ele>267.86</ele>
        <time>2020-07-12T06:42:53Z</time>
      </trkpt>
      <trkpt lat="49.61915" lon="4.97504">
        <ele>267.86</ele>
        <time>2020-07-12T06:43:05Z</time>
      </trkpt>
      <trkpt lat="49.61898" lon="4.97505">
        <ele>264.5</ele>
        <time>2020-07-12T06:43:21Z</time>
      </trkpt>
      <trkpt lat="49.61884" lon="4.97496">
        <ele>262.58</ele>
        <time>2020-07-12T06:43:36Z</time>
      </trkpt>
      <trkpt lat="49.6188" lon="4.97491">
        <ele>262.58</ele>
        <time>2020-07-12T06:43:43Z</time>
      </trkpt>
      <trkpt lat="49.61867" lon="4.97473">
        <ele>264.98</ele>
        <time>2020-07-12T06:43:59Z</time>
      </trkpt>
      <trkpt lat="49.61857" lon="4.9746">
        <ele>266.42</ele>
        <time>2020-07-12T06:44:12Z</time>
      </trkpt>
      <trkpt lat="49.61846" lon="4.97446">
        <ele>266.9</ele>
        <time>2020-07-12T06:44:26Z</time>
      </trkpt>
      <trkpt lat="49.61834" lon="4.9743">
        <ele>266.42</ele>
        <time>2020-07-12T06:44:42Z</time>
      </trkpt>
      <trkpt lat="49.61822" lon="4.97415">
        <ele>265.94</ele>
        <time>2020-07-12T06:44:56Z</time>
      </trkpt>
      <trkpt lat="49.61819" lon="4.9741">
        <ele>266.42</ele>
        <time>2020-07-12T06:45:03Z</time>
      </trkpt>
      <trkpt lat="49.61813" lon="4.97387">
        <ele>267.86</ele>
        <time>2020-07-12T06:45:18Z</time>
      </trkpt>
      <trkpt lat="49.61807" lon="4.97368">
        <ele>268.35</ele>
        <time>2020-07-12T06:45:31Z</time>
      </trkpt>
      <trkpt lat="49.61806" lon="4.97364">
        <ele>267.86</ele>
        <time>2020-07-12T06:45:35Z</time>
      </trkpt>
      <trkpt lat="49.61804" lon="4.97351">
        <ele>266.9</ele>
        <time>2020-07-12T06:45:42Z</time>
      </trkpt>
      <trkpt lat="49.61799" lon="4.97333">
        <ele>266.9</ele>
        <time>2020-07-12T06:45:57Z</time>
      </trkpt>
      <trkpt lat="49.61798" lon="4.97329">
        <ele>266.42</ele>
        <time>2020-07-12T06:45:59Z</time>
      </trkpt>
      <trkpt lat="49.61792" lon="4.97307">
        <ele>264.02</ele>
        <time>2020-07-12T06:46:15Z</time>
      </trkpt>
      <trkpt lat="49.61789" lon="4.97293">
        <ele>262.1</ele>
        <time>2020-07-12T06:46:30Z</time>
      </trkpt>
      <trkpt lat="49.61785" lon="4.97273">
        <ele>261.14</ele>
        <time>2020-07-12T06:46:45Z</time>
      </trkpt>
      <trkpt lat="49.61781" lon="4.97261">
        <ele>259.69</ele>
        <time>2020-07-12T06:47:00Z</time>
      </trkpt>
      <trkpt lat="49.61776" lon="4.97241">
        <ele>258.25</ele>
        <time>2020-07-12T06:47:13Z</time>
      </trkpt>
      <trkpt lat="49.61773" lon="4.97229">
        <ele>256.33</ele>
        <time>2020-07-12T06:47:23Z</time>
      </trkpt>
      <trkpt lat="49.61767" lon="4.97214">
        <ele>253.44</ele>
        <time>2020-07-12T06:47:35Z</time>
      </trkpt>
      <trkpt lat="49.61759" lon="4.9719">
        <ele>249.6</ele>
        <time>2020-07-12T06:47:52Z</time>
      </trkpt>
      <trkpt lat="49.61754" lon="4.97173">
        <ele>250.56</ele>
        <time>2020-07-12T06:48:03Z</time>
      </trkpt>
      <trkpt lat="49.61753" lon="4.97164">
        <ele>251.04</ele>
        <time>2020-07-12T06:48:08Z</time>
      </trkpt>
      <trkpt lat="49.61751" lon="4.97154">
        <ele>252</ele>
        <time>2020-07-12T06:48:13Z</time>
      </trkpt>
      <trkpt lat="49.61747" lon="4.97155">
        <ele>252.48</ele>
        <time>2020-07-12T06:48:20Z</time>
      </trkpt>
      <trkpt lat="49.61737" lon="4.97167">
        <ele>253.44</ele>
        <time>2020-07-12T06:48:32Z</time>
      </trkpt>
      <trkpt lat="49.61726" lon="4.97181">
        <ele>254.41</ele>
        <time>2020-07-12T06:48:46Z</time>
      </trkpt>
      <trkpt lat="49.61712" lon="4.97198">
        <ele>253.93</ele>
        <time>2020-07-12T06:49:01Z</time>
      </trkpt>
      <trkpt lat="49.617" lon="4.97214">
        <ele>251.04</ele>
        <time>2020-07-12T06:49:16Z</time>
      </trkpt>
      <trkpt lat="49.61691" lon="4.97235">
        <ele>249.12</ele>
        <time>2020-07-12T06:49:29Z</time>
      </trkpt>
      <trkpt lat="49.61681" lon="4.97253">
        <ele>250.08</ele>
        <time>2020-07-12T06:49:43Z</time>
      </trkpt>
      <trkpt lat="49.61675" lon="4.97265">
        <ele>252</ele>
        <time>2020-07-12T06:49:54Z</time>
      </trkpt>
      <trkpt lat="49.61663" lon="4.97281">
        <ele>253.93</ele>
        <time>2020-07-12T06:50:08Z</time>
      </trkpt>
      <trkpt lat="49.61651" lon="4.97295">
        <ele>254.89</ele>
        <time>2020-07-12T06:50:22Z</time>
      </trkpt>
      <trkpt lat="49.6164" lon="4.9731">
        <ele>254.41</ele>
        <time>2020-07-12T06:50:36Z</time>
      </trkpt>
      <trkpt lat="49.61629" lon="4.97324">
        <ele>254.41</ele>
        <time>2020-07-12T06:50:49Z</time>
      </trkpt>
      <trkpt lat="49.61615" lon="4.97344">
        <ele>255.37</ele>
        <time>2020-07-12T06:51:05Z</time>
      </trkpt>
      <trkpt lat="49.61603" lon="4.97361">
        <ele>256.81</ele>
        <time>2020-07-12T06:51:20Z</time>
      </trkpt>
      <trkpt lat="49.61591" lon="4.97379">
        <ele>257.29</ele>
        <time>2020-07-12T06:51:37Z</time>
      </trkpt>
      <trkpt lat="49.61578" lon="4.97395">
        <ele>256.81</ele>
        <time>2020-07-12T06:51:51Z</time>
      </trkpt>
      <trkpt lat="49.61576" lon="4.97399">
        <ele>256.81</ele>
        <time>2020-07-12T06:51:56Z</time>
      </trkpt>
      <trkpt lat="49.61565" lon="4.97418">
        <ele>258.25</ele>
        <time>2020-07-12T06:52:11Z</time>
      </trkpt>
      <trkpt lat="49.61554" lon="4.97435">
        <ele>258.73</ele>
        <time>2020-07-12T06:52:26Z</time>
      </trkpt>
      <trkpt lat="49.61544" lon="4.97451">
        <ele>259.69</ele>
        <time>2020-07-12T06:52:39Z</time>
      </trkpt>
      <trkpt lat="49.61534" lon="4.97467">
        <ele>262.1</ele>
        <time>2020-07-12T06:52:52Z</time>
      </trkpt>
      <trkpt lat="49.61524" lon="4.97482">
        <ele>263.54</ele>
        <time>2020-07-12T06:53:06Z</time>
      </trkpt>
      <trkpt lat="49.61514" lon="4.97498">
        <ele>264.98</ele>
        <time>2020-07-12T06:53:21Z</time>
      </trkpt>
      <trkpt lat="49.61505" lon="4.97512">
        <ele>265.46</ele>
        <time>2020-07-12T06:53:34Z</time>
      </trkpt>
      <trkpt lat="49.61495" lon="4.97525">
        <ele>267.38</ele>
        <time>2020-07-12T06:53:47Z</time>
      </trkpt>
      <trkpt lat="49.61494" lon="4.97526">
        <ele>267.38</ele>
        <time>2020-07-12T06:54:03Z</time>
      </trkpt>
      <trkpt lat="49.61486" lon="4.97535">
        <ele>268.35</ele>
        <time>2020-07-12T06:54:15Z</time>
      </trkpt>
      <trkpt lat="49.61477" lon="4.97547">
        <ele>268.83</ele>
        <time>2020-07-12T06:54:27Z</time>
      </trkpt>
      <trkpt lat="49.61466" lon="4.9756">
        <ele>269.31</ele>
        <time>2020-07-12T06:54:41Z</time>
      </trkpt>
      <trkpt lat="49.61455" lon="4.97574">
        <ele>269.79</ele>
        <time>2020-07-12T06:54:54Z</time>
      </trkpt>
      <trkpt lat="49.61445" lon="4.97587">
        <ele>271.23</ele>
        <time>2020-07-12T06:55:06Z</time>
      </trkpt>
      <trkpt lat="49.61435" lon="4.97602">
        <ele>272.19</ele>
        <time>2020-07-12T06:55:20Z</time>
      </trkpt>
      <trkpt lat="49.61427" lon="4.97611">
        <ele>272.67</ele>
        <time>2020-07-12T06:55:29Z</time>
      </trkpt>
      <trkpt lat="49.61416" lon="4.97626">
        <ele>274.59</ele>
        <time>2020-07-12T06:55:42Z</time>
      </trkpt>
      <trkpt lat="49.61406" lon="4.97638">
        <ele>276.52</ele>
        <time>2020-07-12T06:55:56Z</time>
      </trkpt>
      <trkpt lat="49.61396" lon="4.9765">
        <ele>278.44</ele>
        <time>2020-07-12T06:56:09Z</time>
      </trkpt>
      <trkpt lat="49.61384" lon="4.97661">
        <ele>280.84</ele>
        <time>2020-07-12T06:56:22Z</time>
      </trkpt>
      <trkpt lat="49.61373" lon="4.9767">
        <ele>281.32</ele>
        <time>2020-07-12T06:56:35Z</time>
      </trkpt>
      <trkpt lat="49.61363" lon="4.9768">
        <ele>283.25</ele>
        <time>2020-07-12T06:56:47Z</time>
      </trkpt>
      <trkpt lat="49.61355" lon="4.97686">
        <ele>284.21</ele>
        <time>2020-07-12T06:57:00Z</time>
      </trkpt>
      <trkpt lat="49.61353" lon="4.97689">
        <ele>283.73</ele>
        <time>2020-07-12T06:57:12Z</time>
      </trkpt>
      <trkpt lat="49.61343" lon="4.97702">
        <ele>284.69</ele>
        <time>2020-07-12T06:57:25Z</time>
      </trkpt>
      <trkpt lat="49.6133" lon="4.97711">
        <ele>285.17</ele>
        <time>2020-07-12T06:57:38Z</time>
      </trkpt>
      <trkpt lat="49.61328" lon="4.97713">
        <ele>285.65</ele>
        <time>2020-07-12T06:57:42Z</time>
      </trkpt>
      <trkpt lat="49.61318" lon="4.97721">
        <ele>287.09</ele>
        <time>2020-07-12T06:57:53Z</time>
      </trkpt>
      <trkpt lat="49.61311" lon="4.97726">
        <ele>288.53</ele>
        <time>2020-07-12T06:58:00Z</time>
      </trkpt>
      <trkpt lat="49.61306" lon="4.97729">
        <ele>289.97</ele>
        <time>2020-07-12T06:58:06Z</time>
      </trkpt>
      <trkpt lat="49.61295" lon="4.9774">
        <ele>291.42</ele>
        <time>2020-07-12T06:58:20Z</time>
      </trkpt>
      <trkpt lat="49.61281" lon="4.97749">
        <ele>293.34</ele>
        <time>2020-07-12T06:58:35Z</time>
      </trkpt>
      <trkpt lat="49.61269" lon="4.97757">
        <ele>296.22</ele>
        <time>2020-07-12T06:58:49Z</time>
      </trkpt>
      <trkpt lat="49.6126" lon="4.97763">
        <ele>298.15</ele>
        <time>2020-07-12T06:59:00Z</time>
      </trkpt>
      <trkpt lat="49.61247" lon="4.97769">
        <ele>299.59</ele>
        <time>2020-07-12T06:59:14Z</time>
      </trkpt>
      <trkpt lat="49.61235" lon="4.97777">
        <ele>298.15</ele>
        <time>2020-07-12T06:59:28Z</time>
      </trkpt>
      <trkpt lat="49.61224" lon="4.97783">
        <ele>299.11</ele>
        <time>2020-07-12T06:59:40Z</time>
      </trkpt>
      <trkpt lat="49.61215" lon="4.97792">
        <ele>299.59</ele>
        <time>2020-07-12T06:59:54Z</time>
      </trkpt>
      <trkpt lat="49.61208" lon="4.97802">
        <ele>300.07</ele>
        <time>2020-07-12T07:00:05Z</time>
      </trkpt>
      <trkpt lat="49.61202" lon="4.97805">
        <ele>301.51</ele>
        <time>2020-07-12T07:00:11Z</time>
      </trkpt>
      <trkpt lat="49.61194" lon="4.97811">
        <ele>304.39</ele>
        <time>2020-07-12T07:00:24Z</time>
      </trkpt>
      <trkpt lat="49.61188" lon="4.97822">
        <ele>306.8</ele>
        <time>2020-07-12T07:00:38Z</time>
      </trkpt>
      <trkpt lat="49.61178" lon="4.97833">
        <ele>309.2</ele>
        <time>2020-07-12T07:00:54Z</time>
      </trkpt>
      <trkpt lat="49.61163" lon="4.97851">
        <ele>309.68</ele>
        <time>2020-07-12T07:01:10Z</time>
      </trkpt>
      <trkpt lat="49.61158" lon="4.97856">
        <ele>309.68</ele>
        <time>2020-07-12T07:01:14Z</time>
      </trkpt>
      <trkpt lat="49.61144" lon="4.97874">
        <ele>310.64</ele>
        <time>2020-07-12T07:01:30Z</time>
      </trkpt>
      <trkpt lat="49.61135" lon="4.97888">
        <ele>311.6</ele>
        <time>2020-07-12T07:01:45Z</time>
      </trkpt>
      <trkpt lat="49.61126" lon="4.97899">
        <ele>312.09</ele>
        <time>2020-07-12T07:02:00Z</time>
      </trkpt>
      <trkpt lat="49.61117" lon="4.97915">
        <ele>315.45</ele>
        <time>2020-07-12T07:02:15Z</time>
      </trkpt>
      <trkpt lat="49.61102" lon="4.97943">
        <ele>318.33</ele>
        <time>2020-07-12T07:02:29Z</time>
      </trkpt>
      <trkpt lat="49.61092" lon="4.97961">
        <ele>321.22</ele>
        <time>2020-07-12T07:02:44Z</time>
      </trkpt>
      <trkpt lat="49.61091" lon="4.97963">
        <ele>321.22</ele>
        <time>2020-07-12T07:02:46Z</time>
      </trkpt>
      <trkpt lat="49.61077" lon="4.97985">
        <ele>321.22</ele>
        <time>2020-07-12T07:03:02Z</time>
      </trkpt>
      <trkpt lat="49.61073" lon="4.97988">
        <ele>320.74</ele>
        <time>2020-07-12T07:03:06Z</time>
      </trkpt>
      <trkpt lat="49.6106" lon="4.98002">
        <ele>318.81</ele>
        <time>2020-07-12T07:03:20Z</time>
      </trkpt>
      <trkpt lat="49.61051" lon="4.98018">
        <ele>321.22</ele>
        <time>2020-07-12T07:03:39Z</time>
      </trkpt>
      <trkpt lat="49.61045" lon="4.98028">
        <ele>324.1</ele>
        <time>2020-07-12T07:03:54Z</time>
      </trkpt>
      <trkpt lat="49.6103" lon="4.98046">
        <ele>323.62</ele>
        <time>2020-07-12T07:04:12Z</time>
      </trkpt>
      <trkpt lat="49.61019" lon="4.98063">
        <ele>324.58</ele>
        <time>2020-07-12T07:04:27Z</time>
      </trkpt>
      <trkpt lat="49.61007" lon="4.98085">
        <ele>326.02</ele>
        <time>2020-07-12T07:04:45Z</time>
      </trkpt>
      <trkpt lat="49.61" lon="4.98092">
        <ele>326.99</ele>
        <time>2020-07-12T07:04:51Z</time>
      </trkpt>
      <trkpt lat="49.60989" lon="4.9811">
        <ele>327.47</ele>
        <time>2020-07-12T07:05:06Z</time>
      </trkpt>
      <trkpt lat="49.60972" lon="4.98139">
        <ele>323.62</ele>
        <time>2020-07-12T07:05:24Z</time>
      </trkpt>
      <trkpt lat="49.60965" lon="4.98156">
        <ele>324.1</ele>
        <time>2020-07-12T07:05:38Z</time>
      </trkpt>
      <trkpt lat="49.60953" lon="4.98177">
        <ele>323.62</ele>
        <time>2020-07-12T07:05:55Z</time>
      </trkpt>
      <trkpt lat="49.60944" lon="4.98199">
        <ele>322.18</ele>
        <time>2020-07-12T07:06:12Z</time>
      </trkpt>
      <trkpt lat="49.60928" lon="4.98218">
        <ele>318.33</ele>
        <time>2020-07-12T07:06:29Z</time>
      </trkpt>
      <trkpt lat="49.60922" lon="4.98235">
        <ele>318.81</ele>
        <time>2020-07-12T07:06:40Z</time>
      </trkpt>
      <trkpt lat="49.60917" lon="4.98242">
        <ele>319.3</ele>
        <time>2020-07-12T07:06:46Z</time>
      </trkpt>
      <trkpt lat="49.60914" lon="4.98257">
        <ele>319.78</ele>
        <time>2020-07-12T07:06:56Z</time>
      </trkpt>
      <trkpt lat="49.60912" lon="4.98263">
        <ele>319.78</ele>
        <time>2020-07-12T07:06:59Z</time>
      </trkpt>
      <trkpt lat="49.60906" lon="4.98272">
        <ele>319.78</ele>
        <time>2020-07-12T07:07:06Z</time>
      </trkpt>
      <trkpt lat="49.60898" lon="4.98295">
        <ele>317.85</ele>
        <time>2020-07-12T07:07:22Z</time>
      </trkpt>
      <trkpt lat="49.60897" lon="4.98298">
        <ele>317.37</ele>
        <time>2020-07-12T07:07:24Z</time>
      </trkpt>
      <trkpt lat="49.6089" lon="4.98325">
        <ele>313.05</ele>
        <time>2020-07-12T07:07:39Z</time>
      </trkpt>
      <trkpt lat="49.60883" lon="4.98343">
        <ele>310.16</ele>
        <time>2020-07-12T07:07:55Z</time>
      </trkpt>
      <trkpt lat="49.60877" lon="4.98366">
        <ele>308.24</ele>
        <time>2020-07-12T07:08:12Z</time>
      </trkpt>
      <trkpt lat="49.6087" lon="4.9838">
        <ele>308.24</ele>
        <time>2020-07-12T07:08:25Z</time>
      </trkpt>
      <trkpt lat="49.60865" lon="4.98403">
        <ele>312.09</ele>
        <time>2020-07-12T07:08:42Z</time>
      </trkpt>
      <trkpt lat="49.60858" lon="4.9842">
        <ele>317.37</ele>
        <time>2020-07-12T07:08:57Z</time>
      </trkpt>
      <trkpt lat="49.60853" lon="4.98432">
        <ele>317.37</ele>
        <time>2020-07-12T07:09:05Z</time>
      </trkpt>
      <trkpt lat="49.60843" lon="4.98455">
        <ele>319.3</ele>
        <time>2020-07-12T07:09:22Z</time>
      </trkpt>
      <trkpt lat="49.60835" lon="4.98476">
        <ele>318.33</ele>
        <time>2020-07-12T07:09:38Z</time>
      </trkpt>
      <trkpt lat="49.60828" lon="4.98495">
        <ele>319.3</ele>
        <time>2020-07-12T07:09:56Z</time>
      </trkpt>
      <trkpt lat="49.60817" lon="4.98525">
        <ele>318.81</ele>
        <time>2020-07-12T07:10:11Z</time>
      </trkpt>
      <trkpt lat="49.60812" lon="4.98537">
        <ele>318.81</ele>
        <time>2020-07-12T07:10:19Z</time>
      </trkpt>
      <trkpt lat="49.60798" lon="4.98558">
        <ele>318.33</ele>
        <time>2020-07-12T07:10:37Z</time>
      </trkpt>
      <trkpt lat="49.60785" lon="4.98581">
        <ele>317.37</ele>
        <time>2020-07-12T07:10:57Z</time>
      </trkpt>
      <trkpt lat="49.60773" lon="4.98606">
        <ele>314.49</ele>
        <time>2020-07-12T07:11:13Z</time>
      </trkpt>
      <trkpt lat="49.60757" lon="4.98622">
        <ele>314.97</ele>
        <time>2020-07-12T07:11:27Z</time>
      </trkpt>
      <trkpt lat="49.60746" lon="4.98644">
        <ele>314.97</ele>
        <time>2020-07-12T07:11:42Z</time>
      </trkpt>
      <trkpt lat="49.60745" lon="4.98647">
        <ele>314.97</ele>
        <time>2020-07-12T07:11:44Z</time>
      </trkpt>
      <trkpt lat="49.60743" lon="4.98651">
        <ele>314.01</ele>
        <time>2020-07-12T07:11:47Z</time>
      </trkpt>
      <trkpt lat="49.60739" lon="4.98662">
        <ele>314.01</ele>
        <time>2020-07-12T07:11:55Z</time>
      </trkpt>
      <trkpt lat="49.60731" lon="4.98681">
        <ele>313.05</ele>
        <time>2020-07-12T07:12:10Z</time>
      </trkpt>
      <trkpt lat="49.60724" lon="4.98697">
        <ele>312.57</ele>
        <time>2020-07-12T07:12:23Z</time>
      </trkpt>
      <trkpt lat="49.60717" lon="4.98725">
        <ele>311.12</ele>
        <time>2020-07-12T07:12:38Z</time>
      </trkpt>
      <trkpt lat="49.60711" lon="4.98744">
        <ele>310.64</ele>
        <time>2020-07-12T07:12:54Z</time>
      </trkpt>
      <trkpt lat="49.60704" lon="4.98759">
        <ele>312.57</ele>
        <time>2020-07-12T07:13:11Z</time>
      </trkpt>
      <trkpt lat="49.60703" lon="4.98763">
        <ele>312.57</ele>
        <time>2020-07-12T07:13:13Z</time>
      </trkpt>
      <trkpt lat="49.60689" lon="4.98783">
        <ele>316.89</ele>
        <time>2020-07-12T07:13:30Z</time>
      </trkpt>
      <trkpt lat="49.60676" lon="4.98795">
        <ele>317.37</ele>
        <time>2020-07-12T07:13:42Z</time>
      </trkpt>
      <trkpt lat="49.60667" lon="4.98817">
        <ele>316.89</ele>
        <time>2020-07-12T07:13:58Z</time>
      </trkpt>
      <trkpt lat="49.60656" lon="4.98841">
        <ele>316.41</ele>
        <time>2020-07-12T07:14:15Z</time>
      </trkpt>
      <trkpt lat="49.60643" lon="4.98867">
        <ele>315.93</ele>
        <time>2020-07-12T07:14:32Z</time>
      </trkpt>
      <trkpt lat="49.60633" lon="4.98885">
        <ele>316.41</ele>
        <time>2020-07-12T07:14:48Z</time>
      </trkpt>
      <trkpt lat="49.60622" lon="4.98903">
        <ele>315.45</ele>
        <time>2020-07-12T07:15:03Z</time>
      </trkpt>
      <trkpt lat="49.60612" lon="4.98909">
        <ele>314.97</ele>
        <time>2020-07-12T07:15:16Z</time>
      </trkpt>
      <trkpt lat="49.60598" lon="4.98907">
        <ele>313.53</ele>
        <time>2020-07-12T07:15:32Z</time>
      </trkpt>
      <trkpt lat="49.60596" lon="4.98907">
        <ele>313.53</ele>
        <time>2020-07-12T07:15:33Z</time>
      </trkpt>
      <trkpt lat="49.60581" lon="4.98905">
        <ele>312.57</ele>
        <time>2020-07-12T07:15:49Z</time>
      </trkpt>
      <trkpt lat="49.60573" lon="4.98903">
        <ele>312.09</ele>
        <time>2020-07-12T07:15:57Z</time>
      </trkpt>
      <trkpt lat="49.60557" lon="4.98904">
        <ele>314.97</ele>
        <time>2020-07-12T07:16:13Z</time>
      </trkpt>
      <trkpt lat="49.60544" lon="4.98902">
        <ele>314.01</ele>
        <time>2020-07-12T07:16:26Z</time>
      </trkpt>
      <trkpt lat="49.60529" lon="4.98897">
        <ele>314.49</ele>
        <time>2020-07-12T07:16:41Z</time>
      </trkpt>
      <trkpt lat="49.60513" lon="4.98889">
        <ele>317.37</ele>
        <time>2020-07-12T07:16:56Z</time>
      </trkpt>
      <trkpt lat="49.60503" lon="4.98879">
        <ele>318.33</ele>
        <time>2020-07-12T07:17:10Z</time>
      </trkpt>
      <trkpt lat="49.60486" lon="4.98869">
        <ele>319.78</ele>
        <time>2020-07-12T07:17:28Z</time>
      </trkpt>
      <trkpt lat="49.60469" lon="4.98858">
        <ele>321.22</ele>
        <time>2020-07-12T07:17:47Z</time>
      </trkpt>
      <trkpt lat="49.6046" lon="4.98847">
        <ele>324.1</ele>
        <time>2020-07-12T07:18:02Z</time>
      </trkpt>
      <trkpt lat="49.60444" lon="4.98838">
        <ele>325.54</ele>
        <time>2020-07-12T07:18:20Z</time>
      </trkpt>
      <trkpt lat="49.60424" lon="4.9883">
        <ele>320.74</ele>
        <time>2020-07-12T07:18:37Z</time>
      </trkpt>
      <trkpt lat="49.6041" lon="4.98823">
        <ele>319.78</ele>
        <time>2020-07-12T07:18:55Z</time>
      </trkpt>
      <trkpt lat="49.60393" lon="4.98817">
        <ele>322.18</ele>
        <time>2020-07-12T07:19:13Z</time>
      </trkpt>
      <trkpt lat="49.60382" lon="4.98814">
        <ele>322.18</ele>
        <time>2020-07-12T07:19:25Z</time>
      </trkpt>
      <trkpt lat="49.60372" lon="4.98809">
        <ele>322.18</ele>
        <time>2020-07-12T07:19:38Z</time>
      </trkpt>
      <trkpt lat="49.60348" lon="4.988">
        <ele>318.81</ele>
        <time>2020-07-12T07:19:57Z</time>
      </trkpt>
      <trkpt lat="49.60336" lon="4.98791">
        <ele>315.93</ele>
        <time>2020-07-12T07:20:11Z</time>
      </trkpt>
      <trkpt lat="49.6032" lon="4.9878">
        <ele>314.01</ele>
        <time>2020-07-12T07:20:29Z</time>
      </trkpt>
      <trkpt lat="49.60302" lon="4.98777">
        <ele>311.12</ele>
        <time>2020-07-12T07:20:45Z</time>
      </trkpt>
      <trkpt lat="49.6029" lon="4.98772">
        <ele>309.68</ele>
        <time>2020-07-12T07:21:03Z</time>
      </trkpt>
      <trkpt lat="49.60282" lon="4.98771">
        <ele>310.16</ele>
        <time>2020-07-12T07:21:20Z</time>
      </trkpt>
      <trkpt lat="49.6028" lon="4.98769">
        <ele>310.16</ele>
        <time>2020-07-12T07:21:22Z</time>
      </trkpt>
      <trkpt lat="49.60256" lon="4.98765">
        <ele>310.64</ele>
        <time>2020-07-12T07:21:38Z</time>
      </trkpt>
      <trkpt lat="49.60248" lon="4.98762">
        <ele>311.6</ele>
        <time>2020-07-12T07:21:45Z</time>
      </trkpt>
      <trkpt lat="49.60226" lon="4.98753">
        <ele>313.53</ele>
        <time>2020-07-12T07:22:03Z</time>
      </trkpt>
      <trkpt lat="49.60223" lon="4.98752">
        <ele>313.53</ele>
        <time>2020-07-12T07:22:05Z</time>
      </trkpt>
      <trkpt lat="49.60211" lon="4.98748">
        <ele>314.01</ele>
        <time>2020-07-12T07:22:16Z</time>
      </trkpt>
      <trkpt lat="49.60195" lon="4.9874">
        <ele>312.57</ele>
        <time>2020-07-12T07:22:30Z</time>
      </trkpt>
      <trkpt lat="49.60184" lon="4.98737">
        <ele>311.6</ele>
        <time>2020-07-12T07:22:42Z</time>
      </trkpt>
      <trkpt lat="49.60176" lon="4.98725">
        <ele>312.09</ele>
        <time>2020-07-12T07:22:55Z</time>
      </trkpt>
      <trkpt lat="49.60163" lon="4.98707">
        <ele>311.6</ele>
        <time>2020-07-12T07:23:10Z</time>
      </trkpt>
      <trkpt lat="49.60152" lon="4.98695">
        <ele>310.64</ele>
        <time>2020-07-12T07:23:23Z</time>
      </trkpt>
      <trkpt lat="49.60146" lon="4.98685">
        <ele>312.57</ele>
        <time>2020-07-12T07:23:35Z</time>
      </trkpt>
      <trkpt lat="49.60137" lon="4.9867">
        <ele>314.49</ele>
        <time>2020-07-12T07:23:49Z</time>
      </trkpt>
      <trkpt lat="49.60125" lon="4.98656">
        <ele>313.53</ele>
        <time>2020-07-12T07:24:02Z</time>
      </trkpt>
      <trkpt lat="49.60119" lon="4.98647">
        <ele>312.57</ele>
        <time>2020-07-12T07:24:13Z</time>
      </trkpt>
      <trkpt lat="49.60108" lon="4.98633">
        <ele>311.6</ele>
        <time>2020-07-12T07:24:26Z</time>
      </trkpt>
      <trkpt lat="49.60103" lon="4.98623">
        <ele>313.53</ele>
        <time>2020-07-12T07:24:34Z</time>
      </trkpt>
      <trkpt lat="49.60093" lon="4.98607">
        <ele>314.49</ele>
        <time>2020-07-12T07:24:48Z</time>
      </trkpt>
      <trkpt lat="49.60091" lon="4.98605">
        <ele>314.49</ele>
        <time>2020-07-12T07:24:51Z</time>
      </trkpt>
      <trkpt lat="49.60075" lon="4.98601">
        <ele>313.53</ele>
        <time>2020-07-12T07:25:04Z</time>
      </trkpt>
      <trkpt lat="49.60073" lon="4.98601">
        <ele>313.53</ele>
        <time>2020-07-12T07:25:06Z</time>
      </trkpt>
      <trkpt lat="49.60062" lon="4.98611">
        <ele>314.97</ele>
        <time>2020-07-12T07:25:20Z</time>
      </trkpt>
      <trkpt lat="49.6006" lon="4.98615">
        <ele>315.45</ele>
        <time>2020-07-12T07:25:26Z</time>
      </trkpt>
      <trkpt lat="49.60058" lon="4.98619">
        <ele>315.93</ele>
        <time>2020-07-12T07:25:29Z</time>
      </trkpt>
      <trkpt lat="49.60057" lon="4.98637">
        <ele>315.93</ele>
        <time>2020-07-12T07:25:44Z</time>
      </trkpt>
      <trkpt lat="49.60056" lon="4.98662">
        <ele>316.89</ele>
        <time>2020-07-12T07:25:59Z</time>
      </trkpt>
      <trkpt lat="49.60051" lon="4.98673">
        <ele>315.45</ele>
        <time>2020-07-12T07:26:05Z</time>
      </trkpt>
      <trkpt lat="49.60046" lon="4.98689">
        <ele>315.45</ele>
        <time>2020-07-12T07:26:16Z</time>
      </trkpt>
      <trkpt lat="49.60045" lon="4.98692">
        <ele>315.93</ele>
        <time>2020-07-12T07:26:18Z</time>
      </trkpt>
      <trkpt lat="49.60034" lon="4.98725">
        <ele>316.89</ele>
        <time>2020-07-12T07:26:35Z</time>
      </trkpt>
      <trkpt lat="49.60021" lon="4.98746">
        <ele>315.45</ele>
        <time>2020-07-12T07:26:52Z</time>
      </trkpt>
      <trkpt lat="49.60007" lon="4.98769">
        <ele>312.09</ele>
        <time>2020-07-12T07:27:10Z</time>
      </trkpt>
      <trkpt lat="49.59997" lon="4.98792">
        <ele>312.57</ele>
        <time>2020-07-12T07:27:28Z</time>
      </trkpt>
      <trkpt lat="49.59989" lon="4.98814">
        <ele>313.53</ele>
        <time>2020-07-12T07:27:45Z</time>
      </trkpt>
      <trkpt lat="49.59976" lon="4.98828">
        <ele>314.49</ele>
        <time>2020-07-12T07:28:02Z</time>
      </trkpt>
      <trkpt lat="49.59969" lon="4.98859">
        <ele>314.97</ele>
        <time>2020-07-12T07:28:20Z</time>
      </trkpt>
      <trkpt lat="49.59954" lon="4.98877">
        <ele>314.97</ele>
        <time>2020-07-12T07:28:35Z</time>
      </trkpt>
      <trkpt lat="49.59948" lon="4.98886">
        <ele>316.41</ele>
        <time>2020-07-12T07:28:47Z</time>
      </trkpt>
      <trkpt lat="49.59941" lon="4.98907">
        <ele>317.85</ele>
        <time>2020-07-12T07:29:01Z</time>
      </trkpt>
      <trkpt lat="49.59927" lon="4.98925">
        <ele>318.81</ele>
        <time>2020-07-12T07:29:14Z</time>
      </trkpt>
      <trkpt lat="49.59913" lon="4.98939">
        <ele>317.37</ele>
        <time>2020-07-12T07:29:32Z</time>
      </trkpt>
      <trkpt lat="49.59902" lon="4.98955">
        <ele>317.85</ele>
        <time>2020-07-12T07:29:47Z</time>
      </trkpt>
      <trkpt lat="49.59883" lon="4.98974">
        <ele>317.37</ele>
        <time>2020-07-12T07:30:06Z</time>
      </trkpt>
      <trkpt lat="49.59861" lon="4.98999">
        <ele>318.33</ele>
        <time>2020-07-12T07:30:25Z</time>
      </trkpt>
      <trkpt lat="49.59852" lon="4.99015">
        <ele>318.33</ele>
        <time>2020-07-12T07:30:41Z</time>
      </trkpt>
      <trkpt lat="49.59837" lon="4.99027">
        <ele>319.3</ele>
        <time>2020-07-12T07:30:57Z</time>
      </trkpt>
      <trkpt lat="49.59821" lon="4.99042">
        <ele>319.3</ele>
        <time>2020-07-12T07:31:12Z</time>
      </trkpt>
      <trkpt lat="49.59809" lon="4.99051">
        <ele>320.26</ele>
        <time>2020-07-12T07:31:28Z</time>
      </trkpt>
      <trkpt lat="49.59792" lon="4.99064">
        <ele>321.22</ele>
        <time>2020-07-12T07:31:45Z</time>
      </trkpt>
      <trkpt lat="49.59778" lon="4.99077">
        <ele>319.78</ele>
        <time>2020-07-12T07:32:02Z</time>
      </trkpt>
      <trkpt lat="49.59763" lon="4.99088">
        <ele>316.89</ele>
        <time>2020-07-12T07:32:17Z</time>
      </trkpt>
      <trkpt lat="49.5975" lon="4.99095">
        <ele>315.45</ele>
        <time>2020-07-12T07:32:32Z</time>
      </trkpt>
      <trkpt lat="49.59735" lon="4.99102">
        <ele>315.93</ele>
        <time>2020-07-12T07:32:48Z</time>
      </trkpt>
      <trkpt lat="49.59713" lon="4.99116">
        <ele>316.89</ele>
        <time>2020-07-12T07:33:06Z</time>
      </trkpt>
      <trkpt lat="49.59708" lon="4.99116">
        <ele>316.89</ele>
        <time>2020-07-12T07:33:10Z</time>
      </trkpt>
      <trkpt lat="49.59687" lon="4.99125">
        <ele>314.49</ele>
        <time>2020-07-12T07:33:28Z</time>
      </trkpt>
      <trkpt lat="49.59676" lon="4.99139">
        <ele>316.89</ele>
        <time>2020-07-12T07:33:45Z</time>
      </trkpt>
      <trkpt lat="49.59659" lon="4.99151">
        <ele>314.97</ele>
        <time>2020-07-12T07:34:01Z</time>
      </trkpt>
      <trkpt lat="49.59643" lon="4.99162">
        <ele>314.01</ele>
        <time>2020-07-12T07:34:17Z</time>
      </trkpt>
      <trkpt lat="49.59638" lon="4.99164">
        <ele>313.53</ele>
        <time>2020-07-12T07:34:22Z</time>
      </trkpt>
      <trkpt lat="49.59627" lon="4.99171">
        <ele>311.6</ele>
        <time>2020-07-12T07:34:32Z</time>
      </trkpt>
      <trkpt lat="49.59622" lon="4.99173">
        <ele>311.12</ele>
        <time>2020-07-12T07:34:36Z</time>
      </trkpt>
      <trkpt lat="49.59609" lon="4.99181">
        <ele>309.68</ele>
        <time>2020-07-12T07:34:50Z</time>
      </trkpt>
      <trkpt lat="49.59608" lon="4.99182">
        <ele>309.68</ele>
        <time>2020-07-12T07:34:51Z</time>
      </trkpt>
      <trkpt lat="49.59603" lon="4.99185">
        <ele>309.2</ele>
        <time>2020-07-12T07:34:57Z</time>
      </trkpt>
      <trkpt lat="49.59597" lon="4.99187">
        <ele>309.2</ele>
        <time>2020-07-12T07:35:02Z</time>
      </trkpt>
      <trkpt lat="49.59592" lon="4.99194">
        <ele>309.2</ele>
        <time>2020-07-12T07:35:06Z</time>
      </trkpt>
      <trkpt lat="49.59589" lon="4.99198">
        <ele>309.2</ele>
        <time>2020-07-12T07:35:11Z</time>
      </trkpt>
      <trkpt lat="49.59576" lon="4.99209">
        <ele>309.2</ele>
        <time>2020-07-12T07:35:25Z</time>
      </trkpt>
      <trkpt lat="49.59574" lon="4.99211">
        <ele>309.2</ele>
        <time>2020-07-12T07:35:27Z</time>
      </trkpt>
      <trkpt lat="49.59571" lon="4.99215">
        <ele>309.2</ele>
        <time>2020-07-12T07:35:30Z</time>
      </trkpt>
      <trkpt lat="49.59562" lon="4.99223">
        <ele>310.16</ele>
        <time>2020-07-12T07:35:40Z</time>
      </trkpt>
      <trkpt lat="49.59557" lon="4.99231">
        <ele>310.16</ele>
        <time>2020-07-12T07:35:46Z</time>
      </trkpt>
      <trkpt lat="49.59551" lon="4.99239">
        <ele>310.64</ele>
        <time>2020-07-12T07:35:55Z</time>
      </trkpt>
      <trkpt lat="49.59539" lon="4.99256">
        <ele>312.09</ele>
        <time>2020-07-12T07:36:10Z</time>
      </trkpt>
      <trkpt lat="49.59535" lon="4.99261">
        <ele>312.09</ele>
        <time>2020-07-12T07:36:14Z</time>
      </trkpt>
      <trkpt lat="49.5952" lon="4.99269">
        <ele>311.6</ele>
        <time>2020-07-12T07:36:29Z</time>
      </trkpt>
      <trkpt lat="49.59506" lon="4.99277">
        <ele>310.64</ele>
        <time>2020-07-12T07:36:41Z</time>
      </trkpt>
      <trkpt lat="49.59504" lon="4.9928">
        <ele>310.16</ele>
        <time>2020-07-12T07:36:46Z</time>
      </trkpt>
      <trkpt lat="49.59497" lon="4.99307">
        <ele>309.68</ele>
        <time>2020-07-12T07:37:03Z</time>
      </trkpt>
      <trkpt lat="49.59494" lon="4.99315">
        <ele>308.72</ele>
        <time>2020-07-12T07:37:11Z</time>
      </trkpt>
      <trkpt lat="49.59488" lon="4.99321">
        <ele>308.72</ele>
        <time>2020-07-12T07:37:21Z</time>
      </trkpt>
      <trkpt lat="49.59479" lon="4.99337">
        <ele>309.2</ele>
        <time>2020-07-12T07:37:35Z</time>
      </trkpt>
      <trkpt lat="49.59479" lon="4.99338">
        <ele>309.2</ele>
        <time>2020-07-12T07:37:36Z</time>
      </trkpt>
      <trkpt lat="49.59471" lon="4.99351">
        <ele>307.28</ele>
        <time>2020-07-12T07:37:48Z</time>
      </trkpt>
      <trkpt lat="49.59459" lon="4.99368">
        <ele>305.84</ele>
        <time>2020-07-12T07:38:03Z</time>
      </trkpt>
      <trkpt lat="49.59455" lon="4.99371">
        <ele>305.84</ele>
        <time>2020-07-12T07:38:09Z</time>
      </trkpt>
      <trkpt lat="49.59443" lon="4.9939">
        <ele>305.36</ele>
        <time>2020-07-12T07:38:24Z</time>
      </trkpt>
      <trkpt lat="49.59441" lon="4.99392">
        <ele>304.88</ele>
        <time>2020-07-12T07:38:27Z</time>
      </trkpt>
      <trkpt lat="49.59428" lon="4.9941">
        <ele>304.88</ele>
        <time>2020-07-12T07:38:42Z</time>
      </trkpt>
      <trkpt lat="49.59426" lon="4.99414">
        <ele>304.39</ele>
        <time>2020-07-12T07:38:48Z</time>
      </trkpt>
      <trkpt lat="49.5941" lon="4.9943">
        <ele>304.88</ele>
        <time>2020-07-12T07:39:04Z</time>
      </trkpt>
      <trkpt lat="49.59408" lon="4.99434">
        <ele>303.91</ele>
        <time>2020-07-12T07:39:09Z</time>
      </trkpt>
      <trkpt lat="49.59403" lon="4.99439">
        <ele>303.43</ele>
        <time>2020-07-12T07:39:14Z</time>
      </trkpt>
      <trkpt lat="49.59398" lon="4.99442">
        <ele>303.43</ele>
        <time>2020-07-12T07:39:19Z</time>
      </trkpt>
      <trkpt lat="49.59389" lon="4.99458">
        <ele>302.47</ele>
        <time>2020-07-12T07:39:34Z</time>
      </trkpt>
      <trkpt lat="49.59377" lon="4.99465">
        <ele>302.47</ele>
        <time>2020-07-12T07:39:44Z</time>
      </trkpt>
      <trkpt lat="49.59368" lon="4.99475">
        <ele>301.51</ele>
        <time>2020-07-12T07:39:57Z</time>
      </trkpt>
      <trkpt lat="49.59357" lon="4.99486">
        <ele>300.55</ele>
        <time>2020-07-12T07:40:10Z</time>
      </trkpt>
      <trkpt lat="49.59354" lon="4.99491">
        <ele>300.07</ele>
        <time>2020-07-12T07:40:15Z</time>
      </trkpt>
      <trkpt lat="49.5934" lon="4.99505">
        <ele>301.03</ele>
        <time>2020-07-12T07:40:28Z</time>
      </trkpt>
      <trkpt lat="49.59328" lon="4.9951">
        <ele>299.59</ele>
        <time>2020-07-12T07:40:42Z</time>
      </trkpt>
      <trkpt lat="49.59324" lon="4.99513">
        <ele>299.59</ele>
        <time>2020-07-12T07:40:48Z</time>
      </trkpt>
      <trkpt lat="49.59315" lon="4.99521">
        <ele>302.95</ele>
        <time>2020-07-12T07:41:03Z</time>
      </trkpt>
      <trkpt lat="49.59299" lon="4.99531">
        <ele>301.03</ele>
        <time>2020-07-12T07:41:17Z</time>
      </trkpt>
      <trkpt lat="49.59292" lon="4.99532">
        <ele>300.07</ele>
        <time>2020-07-12T07:41:28Z</time>
      </trkpt>
      <trkpt lat="49.59289" lon="4.99525">
        <ele>301.03</ele>
        <time>2020-07-12T07:41:47Z</time>
      </trkpt>
      <trkpt lat="49.5929" lon="4.99526">
        <ele>301.03</ele>
        <time>2020-07-12T07:42:14Z</time>
      </trkpt>
      <trkpt lat="49.59289" lon="4.99526">
        <ele>301.03</ele>
        <time>2020-07-12T07:42:43Z</time>
      </trkpt>
      <trkpt lat="49.59292" lon="4.99529">
        <ele>301.99</ele>
        <time>2020-07-12T07:43:07Z</time>
      </trkpt>
      <trkpt lat="49.59291" lon="4.99539">
        <ele>301.99</ele>
        <time>2020-07-12T07:43:23Z</time>
      </trkpt>
      <trkpt lat="49.59292" lon="4.99541">
        <ele>301.99</ele>
        <time>2020-07-12T07:43:40Z</time>
      </trkpt>
      <trkpt lat="49.59293" lon="4.99541">
        <ele>301.99</ele>
        <time>2020-07-12T07:43:57Z</time>
      </trkpt>
      <trkpt lat="49.59293" lon="4.99535">
        <ele>301.51</ele>
        <time>2020-07-12T07:44:13Z</time>
      </trkpt>
      <trkpt lat="49.59295" lon="4.99534">
        <ele>302.95</ele>
        <time>2020-07-12T07:44:27Z</time>
      </trkpt>
      <trkpt lat="49.59297" lon="4.99522">
        <ele>302.95</ele>
        <time>2020-07-12T07:44:39Z</time>
      </trkpt>
      <trkpt lat="49.59297" lon="4.99496">
        <ele>300.55</ele>
        <time>2020-07-12T07:44:53Z</time>
      </trkpt>
      <trkpt lat="49.59296" lon="4.99468">
        <ele>300.55</ele>
        <time>2020-07-12T07:45:10Z</time>
      </trkpt>
      <trkpt lat="49.59293" lon="4.99444">
        <ele>298.63</ele>
        <time>2020-07-12T07:45:22Z</time>
      </trkpt>
      <trkpt lat="49.59292" lon="4.99423">
        <ele>296.7</ele>
        <time>2020-07-12T07:45:37Z</time>
      </trkpt>
      <trkpt lat="49.59292" lon="4.99396">
        <ele>296.22</ele>
        <time>2020-07-12T07:45:54Z</time>
      </trkpt>
      <trkpt lat="49.5929" lon="4.99382">
        <ele>297.18</ele>
        <time>2020-07-12T07:46:02Z</time>
      </trkpt>
      <trkpt lat="49.59288" lon="4.99356">
        <ele>298.63</ele>
        <time>2020-07-12T07:46:18Z</time>
      </trkpt>
      <trkpt lat="49.59285" lon="4.99331">
        <ele>300.07</ele>
        <time>2020-07-12T07:46:34Z</time>
      </trkpt>
      <trkpt lat="49.59286" lon="4.99313">
        <ele>301.51</ele>
        <time>2020-07-12T07:46:49Z</time>
      </trkpt>
      <trkpt lat="49.59281" lon="4.99289">
        <ele>302.95</ele>
        <time>2020-07-12T07:47:05Z</time>
      </trkpt>
      <trkpt lat="49.59276" lon="4.99257">
        <ele>301.03</ele>
        <time>2020-07-12T07:47:22Z</time>
      </trkpt>
      <trkpt lat="49.59272" lon="4.9923">
        <ele>302.95</ele>
        <time>2020-07-12T07:47:38Z</time>
      </trkpt>
      <trkpt lat="49.59271" lon="4.99218">
        <ele>304.39</ele>
        <time>2020-07-12T07:47:48Z</time>
      </trkpt>
      <trkpt lat="49.59267" lon="4.99202">
        <ele>303.91</ele>
        <time>2020-07-12T07:47:56Z</time>
      </trkpt>
      <trkpt lat="49.59265" lon="4.9918">
        <ele>303.91</ele>
        <time>2020-07-12T07:48:11Z</time>
      </trkpt>
      <trkpt lat="49.59262" lon="4.99162">
        <ele>303.91</ele>
        <time>2020-07-12T07:48:25Z</time>
      </trkpt>
      <trkpt lat="49.59256" lon="4.99145">
        <ele>302.95</ele>
        <time>2020-07-12T07:48:39Z</time>
      </trkpt>
      <trkpt lat="49.59257" lon="4.99128">
        <ele>303.91</ele>
        <time>2020-07-12T07:48:50Z</time>
      </trkpt>
      <trkpt lat="49.59253" lon="4.99097">
        <ele>303.43</ele>
        <time>2020-07-12T07:49:08Z</time>
      </trkpt>
      <trkpt lat="49.59251" lon="4.99076">
        <ele>301.99</ele>
        <time>2020-07-12T07:49:23Z</time>
      </trkpt>
      <trkpt lat="49.59251" lon="4.9906">
        <ele>301.51</ele>
        <time>2020-07-12T07:49:35Z</time>
      </trkpt>
      <trkpt lat="49.5925" lon="4.99043">
        <ele>301.03</ele>
        <time>2020-07-12T07:49:50Z</time>
      </trkpt>
      <trkpt lat="49.59249" lon="4.9902">
        <ele>301.51</ele>
        <time>2020-07-12T07:50:06Z</time>
      </trkpt>
      <trkpt lat="49.59249" lon="4.98996">
        <ele>301.03</ele>
        <time>2020-07-12T07:50:20Z</time>
      </trkpt>
      <trkpt lat="49.59249" lon="4.98989">
        <ele>301.03</ele>
        <time>2020-07-12T07:50:24Z</time>
      </trkpt>
      <trkpt lat="49.59246" lon="4.9896">
        <ele>301.51</ele>
        <time>2020-07-12T07:50:40Z</time>
      </trkpt>
      <trkpt lat="49.59246" lon="4.98955">
        <ele>301.51</ele>
        <time>2020-07-12T07:50:44Z</time>
      </trkpt>
      <trkpt lat="49.59244" lon="4.98935">
        <ele>300.55</ele>
        <time>2020-07-12T07:50:58Z</time>
      </trkpt>
      <trkpt lat="49.59242" lon="4.98911">
        <ele>300.07</ele>
        <time>2020-07-12T07:51:13Z</time>
      </trkpt>
      <trkpt lat="49.59245" lon="4.98888">
        <ele>299.11</ele>
        <time>2020-07-12T07:51:28Z</time>
      </trkpt>
      <trkpt lat="49.59246" lon="4.98864">
        <ele>298.63</ele>
        <time>2020-07-12T07:51:42Z</time>
      </trkpt>
      <trkpt lat="49.59246" lon="4.98856">
        <ele>299.11</ele>
        <time>2020-07-12T07:51:47Z</time>
      </trkpt>
      <trkpt lat="49.59245" lon="4.98848">
        <ele>298.63</ele>
        <time>2020-07-12T07:52:04Z</time>
      </trkpt>
      <trkpt lat="49.59245" lon="4.98847">
        <ele>298.63</ele>
        <time>2020-07-12T07:52:05Z</time>
      </trkpt>
      <trkpt lat="49.59245" lon="4.98836">
        <ele>294.78</ele>
        <time>2020-07-12T07:52:18Z</time>
      </trkpt>
      <trkpt lat="49.59243" lon="4.98835">
        <ele>292.86</ele>
        <time>2020-07-12T07:52:21Z</time>
      </trkpt>
      <trkpt lat="49.59242" lon="4.98835">
        <ele>290.46</ele>
        <time>2020-07-12T07:52:32Z</time>
      </trkpt>
      <trkpt lat="49.59241" lon="4.98815">
        <ele>287.09</ele>
        <time>2020-07-12T07:52:46Z</time>
      </trkpt>
      <trkpt lat="49.59239" lon="4.98806">
        <ele>289.01</ele>
        <time>2020-07-12T07:52:59Z</time>
      </trkpt>
      <trkpt lat="49.59233" lon="4.98781">
        <ele>289.49</ele>
        <time>2020-07-12T07:53:14Z</time>
      </trkpt>
      <trkpt lat="49.59231" lon="4.98772">
        <ele>289.49</ele>
        <time>2020-07-12T07:53:19Z</time>
      </trkpt>
      <trkpt lat="49.59228" lon="4.98733">
        <ele>291.9</ele>
        <time>2020-07-12T07:53:36Z</time>
      </trkpt>
      <trkpt lat="49.59228" lon="4.98729">
        <ele>292.38</ele>
        <time>2020-07-12T07:53:56Z</time>
      </trkpt>
      <trkpt lat="49.59229" lon="4.98718">
        <ele>286.61</ele>
        <time>2020-07-12T07:54:15Z</time>
      </trkpt>
      <trkpt lat="49.59234" lon="4.98688">
        <ele>284.21</ele>
        <time>2020-07-12T07:54:32Z</time>
      </trkpt>
      <trkpt lat="49.59235" lon="4.98661">
        <ele>282.28</ele>
        <time>2020-07-12T07:54:46Z</time>
      </trkpt>
      <trkpt lat="49.59236" lon="4.98632">
        <ele>280.36</ele>
        <time>2020-07-12T07:54:58Z</time>
      </trkpt>
      <trkpt lat="49.59235" lon="4.98615">
        <ele>277</ele>
        <time>2020-07-12T07:55:10Z</time>
      </trkpt>
      <trkpt lat="49.59235" lon="4.98592">
        <ele>277.96</ele>
        <time>2020-07-12T07:55:20Z</time>
      </trkpt>
      <trkpt lat="49.59234" lon="4.9856">
        <ele>277.96</ele>
        <time>2020-07-12T07:55:37Z</time>
      </trkpt>
      <trkpt lat="49.59235" lon="4.98552">
        <ele>277.48</ele>
        <time>2020-07-12T07:55:41Z</time>
      </trkpt>
      <trkpt lat="49.59236" lon="4.98544">
        <ele>277.48</ele>
        <time>2020-07-12T07:55:45Z</time>
      </trkpt>
      <trkpt lat="49.59236" lon="4.98517">
        <ele>276.52</ele>
        <time>2020-07-12T07:56:00Z</time>
      </trkpt>
      <trkpt lat="49.59236" lon="4.98492">
        <ele>275.07</ele>
        <time>2020-07-12T07:56:15Z</time>
      </trkpt>
      <trkpt lat="49.59238" lon="4.98463">
        <ele>273.15</ele>
        <time>2020-07-12T07:56:30Z</time>
      </trkpt>
      <trkpt lat="49.59239" lon="4.98426">
        <ele>274.59</ele>
        <time>2020-07-12T07:56:47Z</time>
      </trkpt>
      <trkpt lat="49.59238" lon="4.984">
        <ele>274.11</ele>
        <time>2020-07-12T07:57:04Z</time>
      </trkpt>
      <trkpt lat="49.5924" lon="4.98364">
        <ele>282.28</ele>
        <time>2020-07-12T07:57:20Z</time>
      </trkpt>
      <trkpt lat="49.59239" lon="4.9834">
        <ele>280.84</ele>
        <time>2020-07-12T07:57:38Z</time>
      </trkpt>
      <trkpt lat="49.5924" lon="4.98301">
        <ele>282.77</ele>
        <time>2020-07-12T07:57:56Z</time>
      </trkpt>
      <trkpt lat="49.5924" lon="4.98271">
        <ele>284.21</ele>
        <time>2020-07-12T07:58:13Z</time>
      </trkpt>
      <trkpt lat="49.59241" lon="4.98245">
        <ele>285.65</ele>
        <time>2020-07-12T07:58:29Z</time>
      </trkpt>
      <trkpt lat="49.59242" lon="4.98216">
        <ele>287.09</ele>
        <time>2020-07-12T07:58:44Z</time>
      </trkpt>
      <trkpt lat="49.59242" lon="4.98193">
        <ele>287.57</ele>
        <time>2020-07-12T07:58:57Z</time>
      </trkpt>
      <trkpt lat="49.59242" lon="4.9817">
        <ele>287.09</ele>
        <time>2020-07-12T07:59:10Z</time>
      </trkpt>
      <trkpt lat="49.59241" lon="4.98161">
        <ele>287.09</ele>
        <time>2020-07-12T07:59:14Z</time>
      </trkpt>
      <trkpt lat="49.59238" lon="4.98149">
        <ele>288.05</ele>
        <time>2020-07-12T07:59:23Z</time>
      </trkpt>
      <trkpt lat="49.59237" lon="4.98125">
        <ele>289.01</ele>
        <time>2020-07-12T07:59:38Z</time>
      </trkpt>
      <trkpt lat="49.59236" lon="4.98101">
        <ele>290.46</ele>
        <time>2020-07-12T07:59:51Z</time>
      </trkpt>
      <trkpt lat="49.59235" lon="4.98081">
        <ele>289.97</ele>
        <time>2020-07-12T08:00:04Z</time>
      </trkpt>
      <trkpt lat="49.59232" lon="4.98052">
        <ele>289.49</ele>
        <time>2020-07-12T08:00:20Z</time>
      </trkpt>
      <trkpt lat="49.59229" lon="4.98029">
        <ele>289.97</ele>
        <time>2020-07-12T08:00:34Z</time>
      </trkpt>
      <trkpt lat="49.59227" lon="4.98001">
        <ele>291.9</ele>
        <time>2020-07-12T08:00:50Z</time>
      </trkpt>
      <trkpt lat="49.59225" lon="4.97975">
        <ele>293.34</ele>
        <time>2020-07-12T08:01:05Z</time>
      </trkpt>
      <trkpt lat="49.59222" lon="4.9795">
        <ele>294.3</ele>
        <time>2020-07-12T08:01:19Z</time>
      </trkpt>
      <trkpt lat="49.59218" lon="4.97917">
        <ele>296.7</ele>
        <time>2020-07-12T08:01:36Z</time>
      </trkpt>
      <trkpt lat="49.59216" lon="4.97887">
        <ele>298.15</ele>
        <time>2020-07-12T08:01:53Z</time>
      </trkpt>
      <trkpt lat="49.59213" lon="4.97859">
        <ele>299.11</ele>
        <time>2020-07-12T08:02:09Z</time>
      </trkpt>
      <trkpt lat="49.59211" lon="4.97834">
        <ele>300.07</ele>
        <time>2020-07-12T08:02:25Z</time>
      </trkpt>
      <trkpt lat="49.59207" lon="4.97809">
        <ele>300.55</ele>
        <time>2020-07-12T08:02:40Z</time>
      </trkpt>
      <trkpt lat="49.592" lon="4.97782">
        <ele>303.43</ele>
        <time>2020-07-12T08:02:57Z</time>
      </trkpt>
      <trkpt lat="49.59196" lon="4.97772">
        <ele>303.91</ele>
        <time>2020-07-12T08:03:02Z</time>
      </trkpt>
      <trkpt lat="49.59198" lon="4.97761">
        <ele>304.39</ele>
        <time>2020-07-12T08:03:11Z</time>
      </trkpt>
      <trkpt lat="49.59195" lon="4.97748">
        <ele>305.36</ele>
        <time>2020-07-12T08:03:18Z</time>
      </trkpt>
      <trkpt lat="49.59193" lon="4.97731">
        <ele>305.84</ele>
        <time>2020-07-12T08:03:33Z</time>
      </trkpt>
      <trkpt lat="49.59191" lon="4.97728">
        <ele>306.32</ele>
        <time>2020-07-12T08:03:44Z</time>
      </trkpt>
      <trkpt lat="49.59192" lon="4.97729">
        <ele>306.8</ele>
        <time>2020-07-12T08:03:52Z</time>
      </trkpt>
      <trkpt lat="49.59194" lon="4.97724">
        <ele>306.8</ele>
        <time>2020-07-12T08:03:56Z</time>
      </trkpt>
      <trkpt lat="49.59207" lon="4.97707">
        <ele>306.8</ele>
        <time>2020-07-12T08:04:12Z</time>
      </trkpt>
      <trkpt lat="49.59222" lon="4.9769">
        <ele>308.72</ele>
        <time>2020-07-12T08:04:29Z</time>
      </trkpt>
      <trkpt lat="49.59237" lon="4.97671">
        <ele>310.16</ele>
        <time>2020-07-12T08:04:46Z</time>
      </trkpt>
      <trkpt lat="49.59255" lon="4.9765">
        <ele>311.6</ele>
        <time>2020-07-12T08:05:04Z</time>
      </trkpt>
      <trkpt lat="49.5927" lon="4.97632">
        <ele>310.64</ele>
        <time>2020-07-12T08:05:23Z</time>
      </trkpt>
      <trkpt lat="49.59283" lon="4.97615">
        <ele>311.6</ele>
        <time>2020-07-12T08:05:40Z</time>
      </trkpt>
      <trkpt lat="49.59303" lon="4.97591">
        <ele>312.09</ele>
        <time>2020-07-12T08:06:00Z</time>
      </trkpt>
      <trkpt lat="49.59313" lon="4.97576">
        <ele>310.64</ele>
        <time>2020-07-12T08:06:18Z</time>
      </trkpt>
      <trkpt lat="49.5933" lon="4.97551">
        <ele>309.2</ele>
        <time>2020-07-12T08:06:37Z</time>
      </trkpt>
      <trkpt lat="49.59341" lon="4.97537">
        <ele>307.28</ele>
        <time>2020-07-12T08:06:54Z</time>
      </trkpt>
      <trkpt lat="49.59357" lon="4.97517">
        <ele>305.36</ele>
        <time>2020-07-12T08:07:10Z</time>
      </trkpt>
      <trkpt lat="49.59371" lon="4.97495">
        <ele>305.84</ele>
        <time>2020-07-12T08:07:26Z</time>
      </trkpt>
      <trkpt lat="49.59379" lon="4.97481">
        <ele>305.36</ele>
        <time>2020-07-12T08:07:44Z</time>
      </trkpt>
      <trkpt lat="49.59394" lon="4.97459">
        <ele>302.95</ele>
        <time>2020-07-12T08:08:00Z</time>
      </trkpt>
      <trkpt lat="49.59406" lon="4.97433">
        <ele>298.63</ele>
        <time>2020-07-12T08:08:18Z</time>
      </trkpt>
      <trkpt lat="49.59416" lon="4.9741">
        <ele>293.82</ele>
        <time>2020-07-12T08:08:37Z</time>
      </trkpt>
      <trkpt lat="49.59427" lon="4.97393">
        <ele>291.9</ele>
        <time>2020-07-12T08:08:57Z</time>
      </trkpt>
      <trkpt lat="49.59442" lon="4.97365">
        <ele>289.01</ele>
        <time>2020-07-12T08:09:15Z</time>
      </trkpt>
      <trkpt lat="49.59453" lon="4.97341">
        <ele>287.09</ele>
        <time>2020-07-12T08:09:32Z</time>
      </trkpt>
      <trkpt lat="49.59464" lon="4.97319">
        <ele>286.13</ele>
        <time>2020-07-12T08:09:49Z</time>
      </trkpt>
      <trkpt lat="49.59476" lon="4.97297">
        <ele>283.25</ele>
        <time>2020-07-12T08:10:08Z</time>
      </trkpt>
      <trkpt lat="49.59486" lon="4.97277">
        <ele>283.25</ele>
        <time>2020-07-12T08:10:23Z</time>
      </trkpt>
      <trkpt lat="49.595" lon="4.97254">
        <ele>282.28</ele>
        <time>2020-07-12T08:10:44Z</time>
      </trkpt>
      <trkpt lat="49.59514" lon="4.9723">
        <ele>284.69</ele>
        <time>2020-07-12T08:11:00Z</time>
      </trkpt>
      <trkpt lat="49.59524" lon="4.97218">
        <ele>285.65</ele>
        <time>2020-07-12T08:11:16Z</time>
      </trkpt>
      <trkpt lat="49.59542" lon="4.97195">
        <ele>285.17</ele>
        <time>2020-07-12T08:11:34Z</time>
      </trkpt>
      <trkpt lat="49.59554" lon="4.97179">
        <ele>283.25</ele>
        <time>2020-07-12T08:11:52Z</time>
      </trkpt>
      <trkpt lat="49.59559" lon="4.97168">
        <ele>284.21</ele>
        <time>2020-07-12T08:12:01Z</time>
      </trkpt>
      <trkpt lat="49.59563" lon="4.97164">
        <ele>285.17</ele>
        <time>2020-07-12T08:12:06Z</time>
      </trkpt>
      <trkpt lat="49.59572" lon="4.97141">
        <ele>286.13</ele>
        <time>2020-07-12T08:12:24Z</time>
      </trkpt>
      <trkpt lat="49.5958" lon="4.97117">
        <ele>285.65</ele>
        <time>2020-07-12T08:12:39Z</time>
      </trkpt>
      <trkpt lat="49.59585" lon="4.97097">
        <ele>281.32</ele>
        <time>2020-07-12T08:12:54Z</time>
      </trkpt>
      <trkpt lat="49.59587" lon="4.97089">
        <ele>281.32</ele>
        <time>2020-07-12T08:13:03Z</time>
      </trkpt>
      <trkpt lat="49.5959" lon="4.97075">
        <ele>281.32</ele>
        <time>2020-07-12T08:13:18Z</time>
      </trkpt>
      <trkpt lat="49.59593" lon="4.9707">
        <ele>281.8</ele>
        <time>2020-07-12T08:13:31Z</time>
      </trkpt>
      <trkpt lat="49.59594" lon="4.97068">
        <ele>280.36</ele>
        <time>2020-07-12T08:13:46Z</time>
      </trkpt>
      <trkpt lat="49.59595" lon="4.97063">
        <ele>279.4</ele>
        <time>2020-07-12T08:14:00Z</time>
      </trkpt>
      <trkpt lat="49.59596" lon="4.97059">
        <ele>276.52</ele>
        <time>2020-07-12T08:14:26Z</time>
      </trkpt>
      <trkpt lat="49.59595" lon="4.97055">
        <ele>276.04</ele>
        <time>2020-07-12T08:14:55Z</time>
      </trkpt>
      <trkpt lat="49.59595" lon="4.97055">
        <ele>276.04</ele>
        <time>2020-07-12T08:15:11Z</time>
      </trkpt>
      <trkpt lat="49.59595" lon="4.97055">
        <ele>275.56</ele>
        <time>2020-07-12T08:15:35Z</time>
      </trkpt>
      <trkpt lat="49.59594" lon="4.97055">
        <ele>275.07</ele>
        <time>2020-07-12T08:16:00Z</time>
      </trkpt>
      <trkpt lat="49.59595" lon="4.97054">
        <ele>275.07</ele>
        <time>2020-07-12T08:16:28Z</time>
      </trkpt>
      <trkpt lat="49.59595" lon="4.97054">
        <ele>274.59</ele>
        <time>2020-07-12T08:16:50Z</time>
      </trkpt>
      <trkpt lat="49.59595" lon="4.97049">
        <ele>274.59</ele>
        <time>2020-07-12T08:17:09Z</time>
      </trkpt>
      <trkpt lat="49.59599" lon="4.97029">
        <ele>270.27</ele>
        <time>2020-07-12T08:17:26Z</time>
      </trkpt>
      <trkpt lat="49.59602" lon="4.97005">
        <ele>265.94</ele>
        <time>2020-07-12T08:17:41Z</time>
      </trkpt>
      <trkpt lat="49.59606" lon="4.96984">
        <ele>265.46</ele>
        <time>2020-07-12T08:18:00Z</time>
      </trkpt>
      <trkpt lat="49.5961" lon="4.96967">
        <ele>263.54</ele>
        <time>2020-07-12T08:18:15Z</time>
      </trkpt>
      <trkpt lat="49.59615" lon="4.96939">
        <ele>262.58</ele>
        <time>2020-07-12T08:18:32Z</time>
      </trkpt>
      <trkpt lat="49.5962" lon="4.96917">
        <ele>259.21</ele>
        <time>2020-07-12T08:18:52Z</time>
      </trkpt>
      <trkpt lat="49.59625" lon="4.96898">
        <ele>256.33</ele>
        <time>2020-07-12T08:19:08Z</time>
      </trkpt>
      <trkpt lat="49.59628" lon="4.96881">
        <ele>255.37</ele>
        <time>2020-07-12T08:19:21Z</time>
      </trkpt>
      <trkpt lat="49.59634" lon="4.96848">
        <ele>255.85</ele>
        <time>2020-07-12T08:19:43Z</time>
      </trkpt>
      <trkpt lat="49.59642" lon="4.96821">
        <ele>253.93</ele>
        <time>2020-07-12T08:20:04Z</time>
      </trkpt>
      <trkpt lat="49.59647" lon="4.96803">
        <ele>251.52</ele>
        <time>2020-07-12T08:20:18Z</time>
      </trkpt>
      <trkpt lat="49.59649" lon="4.96795">
        <ele>249.12</ele>
        <time>2020-07-12T08:20:23Z</time>
      </trkpt>
      <trkpt lat="49.59654" lon="4.96771">
        <ele>242.39</ele>
        <time>2020-07-12T08:20:41Z</time>
      </trkpt>
      <trkpt lat="49.59655" lon="4.96769">
        <ele>241.91</ele>
        <time>2020-07-12T08:20:42Z</time>
      </trkpt>
      <trkpt lat="49.59664" lon="4.96746">
        <ele>238.06</ele>
        <time>2020-07-12T08:21:01Z</time>
      </trkpt>
      <trkpt lat="49.59671" lon="4.96725">
        <ele>233.74</ele>
        <time>2020-07-12T08:21:17Z</time>
      </trkpt>
      <trkpt lat="49.59676" lon="4.96705">
        <ele>230.37</ele>
        <time>2020-07-12T08:21:33Z</time>
      </trkpt>
      <trkpt lat="49.59681" lon="4.96684">
        <ele>227.97</ele>
        <time>2020-07-12T08:21:48Z</time>
      </trkpt>
      <trkpt lat="49.59686" lon="4.96667">
        <ele>225.09</ele>
        <time>2020-07-12T08:22:04Z</time>
      </trkpt>
      <trkpt lat="49.59692" lon="4.96645">
        <ele>222.68</ele>
        <time>2020-07-12T08:22:18Z</time>
      </trkpt>
      <trkpt lat="49.59694" lon="4.96635">
        <ele>221.24</ele>
        <time>2020-07-12T08:22:25Z</time>
      </trkpt>
      <trkpt lat="49.59698" lon="4.96616">
        <ele>219.32</ele>
        <time>2020-07-12T08:22:41Z</time>
      </trkpt>
      <trkpt lat="49.59699" lon="4.96611">
        <ele>218.84</ele>
        <time>2020-07-12T08:22:44Z</time>
      </trkpt>
      <trkpt lat="49.59702" lon="4.9659">
        <ele>217.4</ele>
        <time>2020-07-12T08:22:56Z</time>
      </trkpt>
      <trkpt lat="49.59705" lon="4.96578">
        <ele>217.4</ele>
        <time>2020-07-12T08:23:06Z</time>
      </trkpt>
      <trkpt lat="49.59711" lon="4.96557">
        <ele>216.43</ele>
        <time>2020-07-12T08:23:21Z</time>
      </trkpt>
      <trkpt lat="49.59715" lon="4.9654">
        <ele>216.43</ele>
        <time>2020-07-12T08:23:32Z</time>
      </trkpt>
      <trkpt lat="49.59718" lon="4.96518">
        <ele>214.99</ele>
        <time>2020-07-12T08:23:45Z</time>
      </trkpt>
      <trkpt lat="49.59722" lon="4.96489">
        <ele>212.11</ele>
        <time>2020-07-12T08:24:00Z</time>
      </trkpt>
      <trkpt lat="49.59726" lon="4.96475">
        <ele>210.67</ele>
        <time>2020-07-12T08:24:12Z</time>
      </trkpt>
      <trkpt lat="49.59732" lon="4.96447">
        <ele>210.19</ele>
        <time>2020-07-12T08:24:28Z</time>
      </trkpt>
      <trkpt lat="49.59734" lon="4.96425">
        <ele>209.22</ele>
        <time>2020-07-12T08:24:42Z</time>
      </trkpt>
      <trkpt lat="49.59739" lon="4.964">
        <ele>209.7</ele>
        <time>2020-07-12T08:24:57Z</time>
      </trkpt>
      <trkpt lat="49.59742" lon="4.96377">
        <ele>209.7</ele>
        <time>2020-07-12T08:25:12Z</time>
      </trkpt>
      <trkpt lat="49.59744" lon="4.96357">
        <ele>209.7</ele>
        <time>2020-07-12T08:25:25Z</time>
      </trkpt>
      <trkpt lat="49.59752" lon="4.96325">
        <ele>209.7</ele>
        <time>2020-07-12T08:25:42Z</time>
      </trkpt>
      <trkpt lat="49.59754" lon="4.96316">
        <ele>209.22</ele>
        <time>2020-07-12T08:25:50Z</time>
      </trkpt>
      <trkpt lat="49.59764" lon="4.96288">
        <ele>209.22</ele>
        <time>2020-07-12T08:26:05Z</time>
      </trkpt>
      <trkpt lat="49.59767" lon="4.96275">
        <ele>209.7</ele>
        <time>2020-07-12T08:26:17Z</time>
      </trkpt>
      <trkpt lat="49.59771" lon="4.96269">
        <ele>210.67</ele>
        <time>2020-07-12T08:26:21Z</time>
      </trkpt>
      <trkpt lat="49.5978" lon="4.96249">
        <ele>212.59</ele>
        <time>2020-07-12T08:26:32Z</time>
      </trkpt>
      <trkpt lat="49.59786" lon="4.96222">
        <ele>211.63</ele>
        <time>2020-07-12T08:26:50Z</time>
      </trkpt>
      <trkpt lat="49.59792" lon="4.96197">
        <ele>209.7</ele>
        <time>2020-07-12T08:27:05Z</time>
      </trkpt>
      <trkpt lat="49.59798" lon="4.96173">
        <ele>208.26</ele>
        <time>2020-07-12T08:27:20Z</time>
      </trkpt>
      <trkpt lat="49.59804" lon="4.96145">
        <ele>210.19</ele>
        <time>2020-07-12T08:27:34Z</time>
      </trkpt>
      <trkpt lat="49.59809" lon="4.96119">
        <ele>208.74</ele>
        <time>2020-07-12T08:27:50Z</time>
      </trkpt>
      <trkpt lat="49.59809" lon="4.96117">
        <ele>208.74</ele>
        <time>2020-07-12T08:27:51Z</time>
      </trkpt>
      <trkpt lat="49.59814" lon="4.96094">
        <ele>208.74</ele>
        <time>2020-07-12T08:28:06Z</time>
      </trkpt>
      <trkpt lat="49.59815" lon="4.96092">
        <ele>208.74</ele>
        <time>2020-07-12T08:28:08Z</time>
      </trkpt>
      <trkpt lat="49.59825" lon="4.96068">
        <ele>210.19</ele>
        <time>2020-07-12T08:28:22Z</time>
      </trkpt>
      <trkpt lat="49.59835" lon="4.96042">
        <ele>209.7</ele>
        <time>2020-07-12T08:28:40Z</time>
      </trkpt>
      <trkpt lat="49.59837" lon="4.96037">
        <ele>209.7</ele>
        <time>2020-07-12T08:28:45Z</time>
      </trkpt>
      <trkpt lat="49.59841" lon="4.96032">
        <ele>210.19</ele>
        <time>2020-07-12T08:28:49Z</time>
      </trkpt>
      <trkpt lat="49.59853" lon="4.9601">
        <ele>210.67</ele>
        <time>2020-07-12T08:29:03Z</time>
      </trkpt>
      <trkpt lat="49.5986" lon="4.95993">
        <ele>210.67</ele>
        <time>2020-07-12T08:29:18Z</time>
      </trkpt>
      <trkpt lat="49.59876" lon="4.95979">
        <ele>213.55</ele>
        <time>2020-07-12T08:29:32Z</time>
      </trkpt>
      <trkpt lat="49.59887" lon="4.95958">
        <ele>214.51</ele>
        <time>2020-07-12T08:29:49Z</time>
      </trkpt>
      <trkpt lat="49.59898" lon="4.9594">
        <ele>215.47</ele>
        <time>2020-07-12T08:30:04Z</time>
      </trkpt>
      <trkpt lat="49.59904" lon="4.95936">
        <ele>214.03</ele>
        <time>2020-07-12T08:30:11Z</time>
      </trkpt>
      <trkpt lat="49.59918" lon="4.95915">
        <ele>213.55</ele>
        <time>2020-07-12T08:30:27Z</time>
      </trkpt>
      <trkpt lat="49.59922" lon="4.95906">
        <ele>214.51</ele>
        <time>2020-07-12T08:30:37Z</time>
      </trkpt>
      <trkpt lat="49.59929" lon="4.95895">
        <ele>214.99</ele>
        <time>2020-07-12T08:30:49Z</time>
      </trkpt>
      <trkpt lat="49.59941" lon="4.95881">
        <ele>213.07</ele>
        <time>2020-07-12T08:31:01Z</time>
      </trkpt>
      <trkpt lat="49.59953" lon="4.95865">
        <ele>209.22</ele>
        <time>2020-07-12T08:31:17Z</time>
      </trkpt>
      <trkpt lat="49.59962" lon="4.9586">
        <ele>209.7</ele>
        <time>2020-07-12T08:31:29Z</time>
      </trkpt>
      <trkpt lat="49.59983" lon="4.95841">
        <ele>210.19</ele>
        <time>2020-07-12T08:31:48Z</time>
      </trkpt>
      <trkpt lat="49.5999" lon="4.95835">
        <ele>210.67</ele>
        <time>2020-07-12T08:31:58Z</time>
      </trkpt>
      <trkpt lat="49.60011" lon="4.95822">
        <ele>211.63</ele>
        <time>2020-07-12T08:32:16Z</time>
      </trkpt>
      <trkpt lat="49.60024" lon="4.95815">
        <ele>210.19</ele>
        <time>2020-07-12T08:32:32Z</time>
      </trkpt>
      <trkpt lat="49.60041" lon="4.95816">
        <ele>208.74</ele>
        <time>2020-07-12T08:32:46Z</time>
      </trkpt>
      <trkpt lat="49.60058" lon="4.95814">
        <ele>208.74</ele>
        <time>2020-07-12T08:33:02Z</time>
      </trkpt>
      <trkpt lat="49.6006" lon="4.95813">
        <ele>208.74</ele>
        <time>2020-07-12T08:33:05Z</time>
      </trkpt>
      <trkpt lat="49.60073" lon="4.95817">
        <ele>209.7</ele>
        <time>2020-07-12T08:33:18Z</time>
      </trkpt>
      <trkpt lat="49.60086" lon="4.95816">
        <ele>208.26</ele>
        <time>2020-07-12T08:33:33Z</time>
      </trkpt>
      <trkpt lat="49.60096" lon="4.95819">
        <ele>206.82</ele>
        <time>2020-07-12T08:33:44Z</time>
      </trkpt>
      <trkpt lat="49.60105" lon="4.95813">
        <ele>204.9</ele>
        <time>2020-07-12T08:33:53Z</time>
      </trkpt>
      <trkpt lat="49.60112" lon="4.95798">
        <ele>205.38</ele>
        <time>2020-07-12T08:34:06Z</time>
      </trkpt>
      <trkpt lat="49.60119" lon="4.95785">
        <ele>202.98</ele>
        <time>2020-07-12T08:34:19Z</time>
      </trkpt>
      <trkpt lat="49.60132" lon="4.95784">
        <ele>202.49</ele>
        <time>2020-07-12T08:34:35Z</time>
      </trkpt>
      <trkpt lat="49.60134" lon="4.95789">
        <ele>202.98</ele>
        <time>2020-07-12T08:34:38Z</time>
      </trkpt>
      <trkpt lat="49.60138" lon="4.95792">
        <ele>205.86</ele>
        <time>2020-07-12T08:34:42Z</time>
      </trkpt>
      <trkpt lat="49.60148" lon="4.95799">
        <ele>212.11</ele>
        <time>2020-07-12T08:34:50Z</time>
      </trkpt>
      <trkpt lat="49.60156" lon="4.958">
        <ele>216.43</ele>
        <time>2020-07-12T08:34:56Z</time>
      </trkpt>
      <trkpt lat="49.60168" lon="4.95789">
        <ele>224.61</ele>
        <time>2020-07-12T08:35:12Z</time>
      </trkpt>
      <trkpt lat="49.60171" lon="4.95788">
        <ele>224.61</ele>
        <time>2020-07-12T08:35:17Z</time>
      </trkpt>
      <trkpt lat="49.60172" lon="4.95779">
        <ele>224.61</ele>
        <time>2020-07-12T08:35:22Z</time>
      </trkpt>
      <trkpt lat="49.60177" lon="4.95769">
        <ele>223.16</ele>
        <time>2020-07-12T08:35:27Z</time>
      </trkpt>
      <trkpt lat="49.6018" lon="4.95762">
        <ele>221.24</ele>
        <time>2020-07-12T08:35:31Z</time>
      </trkpt>
      <trkpt lat="49.60181" lon="4.9576">
        <ele>219.8</ele>
        <time>2020-07-12T08:35:33Z</time>
      </trkpt>
      <trkpt lat="49.60197" lon="4.95748">
        <ele>212.59</ele>
        <time>2020-07-12T08:35:45Z</time>
      </trkpt>
      <trkpt lat="49.60202" lon="4.95736">
        <ele>210.19</ele>
        <time>2020-07-12T08:35:53Z</time>
      </trkpt>
      <trkpt lat="49.60206" lon="4.95708">
        <ele>207.3</ele>
        <time>2020-07-12T08:36:11Z</time>
      </trkpt>
      <trkpt lat="49.60208" lon="4.95695">
        <ele>205.86</ele>
        <time>2020-07-12T08:36:16Z</time>
      </trkpt>
      <trkpt lat="49.60212" lon="4.95681">
        <ele>205.38</ele>
        <time>2020-07-12T08:36:26Z</time>
      </trkpt>
      <trkpt lat="49.60214" lon="4.95677">
        <ele>204.9</ele>
        <time>2020-07-12T08:36:29Z</time>
      </trkpt>
      <trkpt lat="49.60215" lon="4.95672">
        <ele>205.38</ele>
        <time>2020-07-12T08:36:32Z</time>
      </trkpt>
      <trkpt lat="49.60216" lon="4.95664">
        <ele>205.38</ele>
        <time>2020-07-12T08:36:36Z</time>
      </trkpt>
      <trkpt lat="49.60213" lon="4.95631">
        <ele>203.46</ele>
        <time>2020-07-12T08:36:53Z</time>
      </trkpt>
      <trkpt lat="49.60218" lon="4.95612">
        <ele>202.01</ele>
        <time>2020-07-12T08:37:08Z</time>
      </trkpt>
      <trkpt lat="49.60221" lon="4.9559">
        <ele>203.46</ele>
        <time>2020-07-12T08:37:21Z</time>
      </trkpt>
      <trkpt lat="49.6022" lon="4.95574">
        <ele>201.05</ele>
        <time>2020-07-12T08:37:32Z</time>
      </trkpt>
      <trkpt lat="49.60228" lon="4.9556">
        <ele>198.65</ele>
        <time>2020-07-12T08:37:46Z</time>
      </trkpt>
      <trkpt lat="49.60236" lon="4.95555">
        <ele>200.09</ele>
        <time>2020-07-12T08:37:58Z</time>
      </trkpt>
      <trkpt lat="49.60254" lon="4.95559">
        <ele>203.46</ele>
        <time>2020-07-12T08:38:12Z</time>
      </trkpt>
      <trkpt lat="49.60257" lon="4.95558">
        <ele>203.94</ele>
        <time>2020-07-12T08:38:15Z</time>
      </trkpt>
      <trkpt lat="49.60259" lon="4.95559">
        <ele>203.94</ele>
        <time>2020-07-12T08:38:17Z</time>
      </trkpt>
      <trkpt lat="49.6028" lon="4.95552">
        <ele>204.42</ele>
        <time>2020-07-12T08:38:32Z</time>
      </trkpt>
      <trkpt lat="49.60286" lon="4.95551">
        <ele>200.57</ele>
        <time>2020-07-12T08:38:46Z</time>
      </trkpt>
      <trkpt lat="49.60286" lon="4.95551">
        <ele>198.65</ele>
        <time>2020-07-12T08:39:03Z</time>
      </trkpt>
      <trkpt lat="49.60286" lon="4.95551">
        <ele>198.17</ele>
        <time>2020-07-12T08:39:22Z</time>
      </trkpt>
      <trkpt lat="49.60288" lon="4.95551">
        <ele>197.69</ele>
        <time>2020-07-12T08:39:43Z</time>
      </trkpt>
      <trkpt lat="49.603" lon="4.95545">
        <ele>199.61</ele>
        <time>2020-07-12T08:39:57Z</time>
      </trkpt>
      <trkpt lat="49.60319" lon="4.95541">
        <ele>200.57</ele>
        <time>2020-07-12T08:40:10Z</time>
      </trkpt>
      <trkpt lat="49.60326" lon="4.95538">
        <ele>202.49</ele>
        <time>2020-07-12T08:40:21Z</time>
      </trkpt>
      <trkpt lat="49.60335" lon="4.9554">
        <ele>202.98</ele>
        <time>2020-07-12T08:40:28Z</time>
      </trkpt>
      <trkpt lat="49.6034" lon="4.95544">
        <ele>203.46</ele>
        <time>2020-07-12T08:40:32Z</time>
      </trkpt>
      <trkpt lat="49.60353" lon="4.95545">
        <ele>205.86</ele>
        <time>2020-07-12T08:40:47Z</time>
      </trkpt>
      <trkpt lat="49.6037" lon="4.95548">
        <ele>207.3</ele>
        <time>2020-07-12T08:41:01Z</time>
      </trkpt>
      <trkpt lat="49.60388" lon="4.95545">
        <ele>206.82</ele>
        <time>2020-07-12T08:41:17Z</time>
      </trkpt>
      <trkpt lat="49.6041" lon="4.95546">
        <ele>202.98</ele>
        <time>2020-07-12T08:41:38Z</time>
      </trkpt>
      <trkpt lat="49.60431" lon="4.95531">
        <ele>200.09</ele>
        <time>2020-07-12T08:41:54Z</time>
      </trkpt>
      <trkpt lat="49.6045" lon="4.95521">
        <ele>200.09</ele>
        <time>2020-07-12T08:42:11Z</time>
      </trkpt>
      <trkpt lat="49.60464" lon="4.95511">
        <ele>199.13</ele>
        <time>2020-07-12T08:42:27Z</time>
      </trkpt>
      <trkpt lat="49.60488" lon="4.95496">
        <ele>199.13</ele>
        <time>2020-07-12T08:42:45Z</time>
      </trkpt>
      <trkpt lat="49.60502" lon="4.95488">
        <ele>197.21</ele>
        <time>2020-07-12T08:43:02Z</time>
      </trkpt>
      <trkpt lat="49.60517" lon="4.95476">
        <ele>196.25</ele>
        <time>2020-07-12T08:43:14Z</time>
      </trkpt>
      <trkpt lat="49.60524" lon="4.9547">
        <ele>195.77</ele>
        <time>2020-07-12T08:43:20Z</time>
      </trkpt>
      <trkpt lat="49.60536" lon="4.95459">
        <ele>193.84</ele>
        <time>2020-07-12T08:43:36Z</time>
      </trkpt>
      <trkpt lat="49.60549" lon="4.95458">
        <ele>195.28</ele>
        <time>2020-07-12T08:43:48Z</time>
      </trkpt>
      <trkpt lat="49.60565" lon="4.9545">
        <ele>196.25</ele>
        <time>2020-07-12T08:44:06Z</time>
      </trkpt>
      <trkpt lat="49.60581" lon="4.95445">
        <ele>196.73</ele>
        <time>2020-07-12T08:44:22Z</time>
      </trkpt>
      <trkpt lat="49.60581" lon="4.95445">
        <ele>198.17</ele>
        <time>2020-07-12T08:44:38Z</time>
      </trkpt>
      <trkpt lat="49.60582" lon="4.95444">
        <ele>199.61</ele>
        <time>2020-07-12T08:45:00Z</time>
      </trkpt>
      <trkpt lat="49.60582" lon="4.95444">
        <ele>199.61</ele>
        <time>2020-07-12T08:45:22Z</time>
      </trkpt>
      <trkpt lat="49.60585" lon="4.95443">
        <ele>200.09</ele>
        <time>2020-07-12T08:45:35Z</time>
      </trkpt>
      <trkpt lat="49.60598" lon="4.9544">
        <ele>203.46</ele>
        <time>2020-07-12T08:45:48Z</time>
      </trkpt>
      <trkpt lat="49.60603" lon="4.95441">
        <ele>202.49</ele>
        <time>2020-07-12T08:45:53Z</time>
      </trkpt>
      <trkpt lat="49.60609" lon="4.95442">
        <ele>202.01</ele>
        <time>2020-07-12T08:45:59Z</time>
      </trkpt>
      <trkpt lat="49.60624" lon="4.95434">
        <ele>202.49</ele>
        <time>2020-07-12T08:46:15Z</time>
      </trkpt>
      <trkpt lat="49.60642" lon="4.95433">
        <ele>197.69</ele>
        <time>2020-07-12T08:46:31Z</time>
      </trkpt>
      <trkpt lat="49.60657" lon="4.95427">
        <ele>197.21</ele>
        <time>2020-07-12T08:46:46Z</time>
      </trkpt>
      <trkpt lat="49.60672" lon="4.95419">
        <ele>199.61</ele>
        <time>2020-07-12T08:47:00Z</time>
      </trkpt>
      <trkpt lat="49.60685" lon="4.9542">
        <ele>200.09</ele>
        <time>2020-07-12T08:47:12Z</time>
      </trkpt>
      <trkpt lat="49.60703" lon="4.95417">
        <ele>194.32</ele>
        <time>2020-07-12T08:47:28Z</time>
      </trkpt>
      <trkpt lat="49.60722" lon="4.95414">
        <ele>190.96</ele>
        <time>2020-07-12T08:47:45Z</time>
      </trkpt>
      <trkpt lat="49.6074" lon="4.95416">
        <ele>189.04</ele>
        <time>2020-07-12T08:48:00Z</time>
      </trkpt>
      <trkpt lat="49.60756" lon="4.95416">
        <ele>188.08</ele>
        <time>2020-07-12T08:48:15Z</time>
      </trkpt>
      <trkpt lat="49.60771" lon="4.95417">
        <ele>187.59</ele>
        <time>2020-07-12T08:48:30Z</time>
      </trkpt>
      <trkpt lat="49.60789" lon="4.95419">
        <ele>187.11</ele>
        <time>2020-07-12T08:48:46Z</time>
      </trkpt>
      <trkpt lat="49.60803" lon="4.9542">
        <ele>187.11</ele>
        <time>2020-07-12T08:49:01Z</time>
      </trkpt>
      <trkpt lat="49.60807" lon="4.95424">
        <ele>188.56</ele>
        <time>2020-07-12T08:49:05Z</time>
      </trkpt>
      <trkpt lat="49.6082" lon="4.95429">
        <ele>194.32</ele>
        <time>2020-07-12T08:49:21Z</time>
      </trkpt>
      <trkpt lat="49.60835" lon="4.95441">
        <ele>197.69</ele>
        <time>2020-07-12T08:49:33Z</time>
      </trkpt>
      <trkpt lat="49.60853" lon="4.95451">
        <ele>194.8</ele>
        <time>2020-07-12T08:49:50Z</time>
      </trkpt>
      <trkpt lat="49.60861" lon="4.95453">
        <ele>193.36</ele>
        <time>2020-07-12T08:50:04Z</time>
      </trkpt>
      <trkpt lat="49.60861" lon="4.95453">
        <ele>192.4</ele>
        <time>2020-07-12T08:50:08Z</time>
      </trkpt>
      <trkpt lat="49.60876" lon="4.95462">
        <ele>189.04</ele>
        <time>2020-07-12T08:50:26Z</time>
      </trkpt>
      <trkpt lat="49.60893" lon="4.95467">
        <ele>188.56</ele>
        <time>2020-07-12T08:50:42Z</time>
      </trkpt>
      <trkpt lat="49.60909" lon="4.95473">
        <ele>189.52</ele>
        <time>2020-07-12T08:50:57Z</time>
      </trkpt>
      <trkpt lat="49.60924" lon="4.95481">
        <ele>190.96</ele>
        <time>2020-07-12T08:51:13Z</time>
      </trkpt>
      <trkpt lat="49.60938" lon="4.95488">
        <ele>192.4</ele>
        <time>2020-07-12T08:51:28Z</time>
      </trkpt>
      <trkpt lat="49.60956" lon="4.95498">
        <ele>194.32</ele>
        <time>2020-07-12T08:51:45Z</time>
      </trkpt>
      <trkpt lat="49.60974" lon="4.95505">
        <ele>195.28</ele>
        <time>2020-07-12T08:52:01Z</time>
      </trkpt>
      <trkpt lat="49.60989" lon="4.95512">
        <ele>196.25</ele>
        <time>2020-07-12T08:52:15Z</time>
      </trkpt>
      <trkpt lat="49.61007" lon="4.95524">
        <ele>199.13</ele>
        <time>2020-07-12T08:52:32Z</time>
      </trkpt>
      <trkpt lat="49.61023" lon="4.95533">
        <ele>200.57</ele>
        <time>2020-07-12T08:52:48Z</time>
      </trkpt>
      <trkpt lat="49.61037" lon="4.95538">
        <ele>200.57</ele>
        <time>2020-07-12T08:53:05Z</time>
      </trkpt>
      <trkpt lat="49.61049" lon="4.95544">
        <ele>197.21</ele>
        <time>2020-07-12T08:53:20Z</time>
      </trkpt>
      <trkpt lat="49.61064" lon="4.95549">
        <ele>196.25</ele>
        <time>2020-07-12T08:53:35Z</time>
      </trkpt>
      <trkpt lat="49.61064" lon="4.95549">
        <ele>195.77</ele>
        <time>2020-07-12T08:53:36Z</time>
      </trkpt>
      <trkpt lat="49.6107" lon="4.9555">
        <ele>194.32</ele>
        <time>2020-07-12T08:53:40Z</time>
      </trkpt>
      <trkpt lat="49.61087" lon="4.95536">
        <ele>193.36</ele>
        <time>2020-07-12T08:53:58Z</time>
      </trkpt>
      <trkpt lat="49.61094" lon="4.95534">
        <ele>193.84</ele>
        <time>2020-07-12T08:54:05Z</time>
      </trkpt>
      <trkpt lat="49.6111" lon="4.95531">
        <ele>199.13</ele>
        <time>2020-07-12T08:54:22Z</time>
      </trkpt>
      <trkpt lat="49.61127" lon="4.95534">
        <ele>200.57</ele>
        <time>2020-07-12T08:54:39Z</time>
      </trkpt>
      <trkpt lat="49.61132" lon="4.95536">
        <ele>200.57</ele>
        <time>2020-07-12T08:54:44Z</time>
      </trkpt>
      <trkpt lat="49.61148" lon="4.95543">
        <ele>202.01</ele>
        <time>2020-07-12T08:55:01Z</time>
      </trkpt>
      <trkpt lat="49.61164" lon="4.95546">
        <ele>201.05</ele>
        <time>2020-07-12T08:55:14Z</time>
      </trkpt>
      <trkpt lat="49.61165" lon="4.95546">
        <ele>201.05</ele>
        <time>2020-07-12T08:55:15Z</time>
      </trkpt>
      <trkpt lat="49.6118" lon="4.9555">
        <ele>202.98</ele>
        <time>2020-07-12T08:55:31Z</time>
      </trkpt>
      <trkpt lat="49.61203" lon="4.95561">
        <ele>201.05</ele>
        <time>2020-07-12T08:55:51Z</time>
      </trkpt>
      <trkpt lat="49.61218" lon="4.95569">
        <ele>202.01</ele>
        <time>2020-07-12T08:56:07Z</time>
      </trkpt>
      <trkpt lat="49.61231" lon="4.95573">
        <ele>201.05</ele>
        <time>2020-07-12T08:56:20Z</time>
      </trkpt>
      <trkpt lat="49.61232" lon="4.95574">
        <ele>201.05</ele>
        <time>2020-07-12T08:56:21Z</time>
      </trkpt>
      <trkpt lat="49.61248" lon="4.95582">
        <ele>199.61</ele>
        <time>2020-07-12T08:56:37Z</time>
      </trkpt>
      <trkpt lat="49.61264" lon="4.95585">
        <ele>200.09</ele>
        <time>2020-07-12T08:56:52Z</time>
      </trkpt>
      <trkpt lat="49.61282" lon="4.95591">
        <ele>198.17</ele>
        <time>2020-07-12T08:57:07Z</time>
      </trkpt>
      <trkpt lat="49.61286" lon="4.95598">
        <ele>198.17</ele>
        <time>2020-07-12T08:57:13Z</time>
      </trkpt>
      <trkpt lat="49.61293" lon="4.95606">
        <ele>197.69</ele>
        <time>2020-07-12T08:57:20Z</time>
      </trkpt>
      <trkpt lat="49.61304" lon="4.95614">
        <ele>196.73</ele>
        <time>2020-07-12T08:57:36Z</time>
      </trkpt>
      <trkpt lat="49.61316" lon="4.95626">
        <ele>197.21</ele>
        <time>2020-07-12T08:57:48Z</time>
      </trkpt>
      <trkpt lat="49.6132" lon="4.95629">
        <ele>197.69</ele>
        <time>2020-07-12T08:57:53Z</time>
      </trkpt>
      <trkpt lat="49.61328" lon="4.95646">
        <ele>199.61</ele>
        <time>2020-07-12T08:58:09Z</time>
      </trkpt>
      <trkpt lat="49.61331" lon="4.95654">
        <ele>201.05</ele>
        <time>2020-07-12T08:58:16Z</time>
      </trkpt>
      <trkpt lat="49.61341" lon="4.95682">
        <ele>202.49</ele>
        <time>2020-07-12T08:58:33Z</time>
      </trkpt>
      <trkpt lat="49.61357" lon="4.95704">
        <ele>200.57</ele>
        <time>2020-07-12T08:58:50Z</time>
      </trkpt>
      <trkpt lat="49.6137" lon="4.95723">
        <ele>200.57</ele>
        <time>2020-07-12T08:59:05Z</time>
      </trkpt>
      <trkpt lat="49.61381" lon="4.95747">
        <ele>202.49</ele>
        <time>2020-07-12T08:59:21Z</time>
      </trkpt>
      <trkpt lat="49.61395" lon="4.95767">
        <ele>202.49</ele>
        <time>2020-07-12T08:59:37Z</time>
      </trkpt>
      <trkpt lat="49.61409" lon="4.95775">
        <ele>201.53</ele>
        <time>2020-07-12T08:59:51Z</time>
      </trkpt>
      <trkpt lat="49.61424" lon="4.95784">
        <ele>200.57</ele>
        <time>2020-07-12T09:00:05Z</time>
      </trkpt>
      <trkpt lat="49.61437" lon="4.95796">
        <ele>198.17</ele>
        <time>2020-07-12T09:00:19Z</time>
      </trkpt>
      <trkpt lat="49.61453" lon="4.95813">
        <ele>198.65</ele>
        <time>2020-07-12T09:00:36Z</time>
      </trkpt>
      <trkpt lat="49.61468" lon="4.95823">
        <ele>199.61</ele>
        <time>2020-07-12T09:00:52Z</time>
      </trkpt>
      <trkpt lat="49.61483" lon="4.95832">
        <ele>202.49</ele>
        <time>2020-07-12T09:01:06Z</time>
      </trkpt>
      <trkpt lat="49.615" lon="4.95847">
        <ele>203.94</ele>
        <time>2020-07-12T09:01:23Z</time>
      </trkpt>
      <trkpt lat="49.61505" lon="4.95852">
        <ele>205.38</ele>
        <time>2020-07-12T09:01:30Z</time>
      </trkpt>
      <trkpt lat="49.61524" lon="4.95858">
        <ele>209.22</ele>
        <time>2020-07-12T09:01:47Z</time>
      </trkpt>
      <trkpt lat="49.61539" lon="4.95863">
        <ele>208.74</ele>
        <time>2020-07-12T09:02:01Z</time>
      </trkpt>
      <trkpt lat="49.61558" lon="4.95875">
        <ele>204.42</ele>
        <time>2020-07-12T09:02:18Z</time>
      </trkpt>
      <trkpt lat="49.61573" lon="4.95882">
        <ele>202.98</ele>
        <time>2020-07-12T09:02:33Z</time>
      </trkpt>
      <trkpt lat="49.61588" lon="4.95893">
        <ele>199.13</ele>
        <time>2020-07-12T09:02:48Z</time>
      </trkpt>
      <trkpt lat="49.616" lon="4.95902">
        <ele>200.57</ele>
        <time>2020-07-12T09:03:01Z</time>
      </trkpt>
      <trkpt lat="49.61613" lon="4.95915">
        <ele>202.01</ele>
        <time>2020-07-12T09:03:16Z</time>
      </trkpt>
      <trkpt lat="49.61619" lon="4.9592">
        <ele>202.49</ele>
        <time>2020-07-12T09:03:22Z</time>
      </trkpt>
      <trkpt lat="49.61623" lon="4.95924">
        <ele>202.98</ele>
        <time>2020-07-12T09:03:26Z</time>
      </trkpt>
      <trkpt lat="49.61636" lon="4.95935">
        <ele>204.42</ele>
        <time>2020-07-12T09:03:42Z</time>
      </trkpt>
      <trkpt lat="49.61639" lon="4.95937">
        <ele>204.9</ele>
        <time>2020-07-12T09:03:44Z</time>
      </trkpt>
      <trkpt lat="49.61652" lon="4.9595">
        <ele>206.82</ele>
        <time>2020-07-12T09:04:00Z</time>
      </trkpt>
      <trkpt lat="49.61666" lon="4.95958">
        <ele>207.3</ele>
        <time>2020-07-12T09:04:14Z</time>
      </trkpt>
      <trkpt lat="49.61668" lon="4.9596">
        <ele>207.3</ele>
        <time>2020-07-12T09:04:17Z</time>
      </trkpt>
      <trkpt lat="49.61674" lon="4.9596">
        <ele>207.3</ele>
        <time>2020-07-12T09:04:21Z</time>
      </trkpt>
      <trkpt lat="49.61688" lon="4.95965">
        <ele>205.38</ele>
        <time>2020-07-12T09:04:36Z</time>
      </trkpt>
      <trkpt lat="49.61694" lon="4.95966">
        <ele>202.49</ele>
        <time>2020-07-12T09:04:42Z</time>
      </trkpt>
      <trkpt lat="49.61703" lon="4.95977">
        <ele>200.09</ele>
        <time>2020-07-12T09:04:57Z</time>
      </trkpt>
      <trkpt lat="49.61722" lon="4.95989">
        <ele>200.57</ele>
        <time>2020-07-12T09:05:15Z</time>
      </trkpt>
      <trkpt lat="49.61741" lon="4.95997">
        <ele>196.73</ele>
        <time>2020-07-12T09:05:32Z</time>
      </trkpt>
      <trkpt lat="49.61748" lon="4.95999">
        <ele>196.73</ele>
        <time>2020-07-12T09:05:40Z</time>
      </trkpt>
      <trkpt lat="49.61754" lon="4.96">
        <ele>195.77</ele>
        <time>2020-07-12T09:05:45Z</time>
      </trkpt>
      <trkpt lat="49.61771" lon="4.96006">
        <ele>192.4</ele>
        <time>2020-07-12T09:06:02Z</time>
      </trkpt>
      <trkpt lat="49.61788" lon="4.96016">
        <ele>189.04</ele>
        <time>2020-07-12T09:06:20Z</time>
      </trkpt>
      <trkpt lat="49.61805" lon="4.96022">
        <ele>186.63</ele>
        <time>2020-07-12T09:06:35Z</time>
      </trkpt>
      <trkpt lat="49.61814" lon="4.96029">
        <ele>186.15</ele>
        <time>2020-07-12T09:06:47Z</time>
      </trkpt>
      <trkpt lat="49.61834" lon="4.96033">
        <ele>183.75</ele>
        <time>2020-07-12T09:07:05Z</time>
      </trkpt>
      <trkpt lat="49.61839" lon="4.96034">
        <ele>182.31</ele>
        <time>2020-07-12T09:07:12Z</time>
      </trkpt>
      <trkpt lat="49.61859" lon="4.96035">
        <ele>180.38</ele>
        <time>2020-07-12T09:07:29Z</time>
      </trkpt>
      <trkpt lat="49.61875" lon="4.96036">
        <ele>180.38</ele>
        <time>2020-07-12T09:07:43Z</time>
      </trkpt>
      <trkpt lat="49.61883" lon="4.96039">
        <ele>179.42</ele>
        <time>2020-07-12T09:07:53Z</time>
      </trkpt>
      <trkpt lat="49.61901" lon="4.96045">
        <ele>181.35</ele>
        <time>2020-07-12T09:08:07Z</time>
      </trkpt>
      <trkpt lat="49.61919" lon="4.96047">
        <ele>183.27</ele>
        <time>2020-07-12T09:08:23Z</time>
      </trkpt>
      <trkpt lat="49.61935" lon="4.96049">
        <ele>185.67</ele>
        <time>2020-07-12T09:08:39Z</time>
      </trkpt>
      <trkpt lat="49.61952" lon="4.96052">
        <ele>184.23</ele>
        <time>2020-07-12T09:08:56Z</time>
      </trkpt>
      <trkpt lat="49.61966" lon="4.96056">
        <ele>182.31</ele>
        <time>2020-07-12T09:09:10Z</time>
      </trkpt>
      <trkpt lat="49.61986" lon="4.96058">
        <ele>179.9</ele>
        <time>2020-07-12T09:09:27Z</time>
      </trkpt>
      <trkpt lat="49.62011" lon="4.96054">
        <ele>179.9</ele>
        <time>2020-07-12T09:09:45Z</time>
      </trkpt>
      <trkpt lat="49.62025" lon="4.96053">
        <ele>183.27</ele>
        <time>2020-07-12T09:09:58Z</time>
      </trkpt>
      <trkpt lat="49.62041" lon="4.96049">
        <ele>185.19</ele>
        <time>2020-07-12T09:10:19Z</time>
      </trkpt>
      <trkpt lat="49.62057" lon="4.9605">
        <ele>182.31</ele>
        <time>2020-07-12T09:10:38Z</time>
      </trkpt>
      <trkpt lat="49.62066" lon="4.96048">
        <ele>180.38</ele>
        <time>2020-07-12T09:10:52Z</time>
      </trkpt>
      <trkpt lat="49.62082" lon="4.96044">
        <ele>180.38</ele>
        <time>2020-07-12T09:11:07Z</time>
      </trkpt>
      <trkpt lat="49.62103" lon="4.96038">
        <ele>182.31</ele>
        <time>2020-07-12T09:11:25Z</time>
      </trkpt>
      <trkpt lat="49.62118" lon="4.96029">
        <ele>181.83</ele>
        <time>2020-07-12T09:11:40Z</time>
      </trkpt>
      <trkpt lat="49.62136" lon="4.96026">
        <ele>180.87</ele>
        <time>2020-07-12T09:11:57Z</time>
      </trkpt>
      <trkpt lat="49.62153" lon="4.96019">
        <ele>181.35</ele>
        <time>2020-07-12T09:12:14Z</time>
      </trkpt>
      <trkpt lat="49.62161" lon="4.96017">
        <ele>182.79</ele>
        <time>2020-07-12T09:12:24Z</time>
      </trkpt>
      <trkpt lat="49.62166" lon="4.96016">
        <ele>182.79</ele>
        <time>2020-07-12T09:12:28Z</time>
      </trkpt>
      <trkpt lat="49.62183" lon="4.96015">
        <ele>183.75</ele>
        <time>2020-07-12T09:12:44Z</time>
      </trkpt>
      <trkpt lat="49.62202" lon="4.9602">
        <ele>183.75</ele>
        <time>2020-07-12T09:13:00Z</time>
      </trkpt>
      <trkpt lat="49.62205" lon="4.96021">
        <ele>185.19</ele>
        <time>2020-07-12T09:13:07Z</time>
      </trkpt>
      <trkpt lat="49.62219" lon="4.95993">
        <ele>190.48</ele>
        <time>2020-07-12T09:13:25Z</time>
      </trkpt>
      <trkpt lat="49.62225" lon="4.95993">
        <ele>190.96</ele>
        <time>2020-07-12T09:13:30Z</time>
      </trkpt>
      <trkpt lat="49.62239" lon="4.95971">
        <ele>192.4</ele>
        <time>2020-07-12T09:13:47Z</time>
      </trkpt>
      <trkpt lat="49.62246" lon="4.9596">
        <ele>191.92</ele>
        <time>2020-07-12T09:13:55Z</time>
      </trkpt>
      <trkpt lat="49.6226" lon="4.95946">
        <ele>194.32</ele>
        <time>2020-07-12T09:14:10Z</time>
      </trkpt>
      <trkpt lat="49.62275" lon="4.95927">
        <ele>196.25</ele>
        <time>2020-07-12T09:14:26Z</time>
      </trkpt>
      <trkpt lat="49.62291" lon="4.9591">
        <ele>195.77</ele>
        <time>2020-07-12T09:14:43Z</time>
      </trkpt>
      <trkpt lat="49.62304" lon="4.95897">
        <ele>195.28</ele>
        <time>2020-07-12T09:14:59Z</time>
      </trkpt>
      <trkpt lat="49.6232" lon="4.95882">
        <ele>195.28</ele>
        <time>2020-07-12T09:15:14Z</time>
      </trkpt>
      <trkpt lat="49.62337" lon="4.9588">
        <ele>193.84</ele>
        <time>2020-07-12T09:15:31Z</time>
      </trkpt>
      <trkpt lat="49.62338" lon="4.95882">
        <ele>193.36</ele>
        <time>2020-07-12T09:15:32Z</time>
      </trkpt>
      <trkpt lat="49.62342" lon="4.95891">
        <ele>193.84</ele>
        <time>2020-07-12T09:15:36Z</time>
      </trkpt>
      <trkpt lat="49.62348" lon="4.95915">
        <ele>198.17</ele>
        <time>2020-07-12T09:15:49Z</time>
      </trkpt>
      <trkpt lat="49.62362" lon="4.95939">
        <ele>196.73</ele>
        <time>2020-07-12T09:16:07Z</time>
      </trkpt>
      <trkpt lat="49.62366" lon="4.95962">
        <ele>191.92</ele>
        <time>2020-07-12T09:16:22Z</time>
      </trkpt>
      <trkpt lat="49.62373" lon="4.95983">
        <ele>187.59</ele>
        <time>2020-07-12T09:16:37Z</time>
      </trkpt>
      <trkpt lat="49.62378" lon="4.96002">
        <ele>185.19</ele>
        <time>2020-07-12T09:16:50Z</time>
      </trkpt>
      <trkpt lat="49.62384" lon="4.96026">
        <ele>184.71</ele>
        <time>2020-07-12T09:17:05Z</time>
      </trkpt>
      <trkpt lat="49.62391" lon="4.96044">
        <ele>184.71</ele>
        <time>2020-07-12T09:17:18Z</time>
      </trkpt>
      <trkpt lat="49.624" lon="4.9606">
        <ele>185.19</ele>
        <time>2020-07-12T09:17:31Z</time>
      </trkpt>
      <trkpt lat="49.62406" lon="4.96064">
        <ele>185.67</ele>
        <time>2020-07-12T09:17:37Z</time>
      </trkpt>
      <trkpt lat="49.62423" lon="4.96074">
        <ele>185.67</ele>
        <time>2020-07-12T09:17:52Z</time>
      </trkpt>
      <trkpt lat="49.62437" lon="4.96085">
        <ele>187.59</ele>
        <time>2020-07-12T09:18:06Z</time>
      </trkpt>
      <trkpt lat="49.6244" lon="4.96087">
        <ele>188.08</ele>
        <time>2020-07-12T09:18:11Z</time>
      </trkpt>
      <trkpt lat="49.62459" lon="4.96102">
        <ele>188.08</ele>
        <time>2020-07-12T09:18:29Z</time>
      </trkpt>
      <trkpt lat="49.62471" lon="4.96107">
        <ele>190</ele>
        <time>2020-07-12T09:18:42Z</time>
      </trkpt>
      <trkpt lat="49.62488" lon="4.9611">
        <ele>192.88</ele>
        <time>2020-07-12T09:18:57Z</time>
      </trkpt>
      <trkpt lat="49.62498" lon="4.96113">
        <ele>194.32</ele>
        <time>2020-07-12T09:19:07Z</time>
      </trkpt>
      <trkpt lat="49.62514" lon="4.96114">
        <ele>194.32</ele>
        <time>2020-07-12T09:19:24Z</time>
      </trkpt>
      <trkpt lat="49.62516" lon="4.96112">
        <ele>194.32</ele>
        <time>2020-07-12T09:19:42Z</time>
      </trkpt>
      <trkpt lat="49.62517" lon="4.96111">
        <ele>194.8</ele>
        <time>2020-07-12T09:20:05Z</time>
      </trkpt>
      <trkpt lat="49.62519" lon="4.96111">
        <ele>194.8</ele>
        <time>2020-07-12T09:20:32Z</time>
      </trkpt>
      <trkpt lat="49.6252" lon="4.96112">
        <ele>194.8</ele>
        <time>2020-07-12T09:21:05Z</time>
      </trkpt>
      <trkpt lat="49.6252" lon="4.96111">
        <ele>194.32</ele>
        <time>2020-07-12T09:21:32Z</time>
      </trkpt>
      <trkpt lat="49.62521" lon="4.9611">
        <ele>193.84</ele>
        <time>2020-07-12T09:22:05Z</time>
      </trkpt>
      <trkpt lat="49.62522" lon="4.9611">
        <ele>193.36</ele>
        <time>2020-07-12T09:22:34Z</time>
      </trkpt>
      <trkpt lat="49.62541" lon="4.96108">
        <ele>194.32</ele>
        <time>2020-07-12T09:22:51Z</time>
      </trkpt>
      <trkpt lat="49.62561" lon="4.96104">
        <ele>195.28</ele>
        <time>2020-07-12T09:23:10Z</time>
      </trkpt>
      <trkpt lat="49.62578" lon="4.96096">
        <ele>198.17</ele>
        <time>2020-07-12T09:23:27Z</time>
      </trkpt>
      <trkpt lat="49.62598" lon="4.96094">
        <ele>200.09</ele>
        <time>2020-07-12T09:23:44Z</time>
      </trkpt>
      <trkpt lat="49.62613" lon="4.96097">
        <ele>196.73</ele>
        <time>2020-07-12T09:23:57Z</time>
      </trkpt>
      <trkpt lat="49.62622" lon="4.96107">
        <ele>196.25</ele>
        <time>2020-07-12T09:24:05Z</time>
      </trkpt>
      <trkpt lat="49.62635" lon="4.96118">
        <ele>191.92</ele>
        <time>2020-07-12T09:24:22Z</time>
      </trkpt>
      <trkpt lat="49.62645" lon="4.96128">
        <ele>189.52</ele>
        <time>2020-07-12T09:24:36Z</time>
      </trkpt>
      <trkpt lat="49.62656" lon="4.96143">
        <ele>185.19</ele>
        <time>2020-07-12T09:24:51Z</time>
      </trkpt>
      <trkpt lat="49.62667" lon="4.96159">
        <ele>182.31</ele>
        <time>2020-07-12T09:25:07Z</time>
      </trkpt>
      <trkpt lat="49.62674" lon="4.96171">
        <ele>177.5</ele>
        <time>2020-07-12T09:25:17Z</time>
      </trkpt>
      <trkpt lat="49.62687" lon="4.96193">
        <ele>177.5</ele>
        <time>2020-07-12T09:25:34Z</time>
      </trkpt>
      <trkpt lat="49.62695" lon="4.96212">
        <ele>180.38</ele>
        <time>2020-07-12T09:25:48Z</time>
      </trkpt>
      <trkpt lat="49.62711" lon="4.96225">
        <ele>180.87</ele>
        <time>2020-07-12T09:26:04Z</time>
      </trkpt>
      <trkpt lat="49.62727" lon="4.96236">
        <ele>180.38</ele>
        <time>2020-07-12T09:26:18Z</time>
      </trkpt>
      <trkpt lat="49.62743" lon="4.96247">
        <ele>178.94</ele>
        <time>2020-07-12T09:26:34Z</time>
      </trkpt>
      <trkpt lat="49.62761" lon="4.96261">
        <ele>178.94</ele>
        <time>2020-07-12T09:26:51Z</time>
      </trkpt>
      <trkpt lat="49.62776" lon="4.96274">
        <ele>179.42</ele>
        <time>2020-07-12T09:27:07Z</time>
      </trkpt>
      <trkpt lat="49.62789" lon="4.96283">
        <ele>178.94</ele>
        <time>2020-07-12T09:27:21Z</time>
      </trkpt>
      <trkpt lat="49.62805" lon="4.96296">
        <ele>181.35</ele>
        <time>2020-07-12T09:27:36Z</time>
      </trkpt>
      <trkpt lat="49.62821" lon="4.96302">
        <ele>181.83</ele>
        <time>2020-07-12T09:27:50Z</time>
      </trkpt>
      <trkpt lat="49.62837" lon="4.96305">
        <ele>181.35</ele>
        <time>2020-07-12T09:28:06Z</time>
      </trkpt>
      <trkpt lat="49.62843" lon="4.96305">
        <ele>181.83</ele>
        <time>2020-07-12T09:28:12Z</time>
      </trkpt>
      <trkpt lat="49.62859" lon="4.96313">
        <ele>182.79</ele>
        <time>2020-07-12T09:28:28Z</time>
      </trkpt>
      <trkpt lat="49.62875" lon="4.96324">
        <ele>182.31</ele>
        <time>2020-07-12T09:28:44Z</time>
      </trkpt>
      <trkpt lat="49.62895" lon="4.96336">
        <ele>181.35</ele>
        <time>2020-07-12T09:29:02Z</time>
      </trkpt>
      <trkpt lat="49.62909" lon="4.96348">
        <ele>181.35</ele>
        <time>2020-07-12T09:29:17Z</time>
      </trkpt>
      <trkpt lat="49.62924" lon="4.9636">
        <ele>180.38</ele>
        <time>2020-07-12T09:29:33Z</time>
      </trkpt>
      <trkpt lat="49.62937" lon="4.96369">
        <ele>179.42</ele>
        <time>2020-07-12T09:29:47Z</time>
      </trkpt>
      <trkpt lat="49.62947" lon="4.96375">
        <ele>177.5</ele>
        <time>2020-07-12T09:29:59Z</time>
      </trkpt>
      <trkpt lat="49.62964" lon="4.9639">
        <ele>174.14</ele>
        <time>2020-07-12T09:30:16Z</time>
      </trkpt>
      <trkpt lat="49.62977" lon="4.964">
        <ele>175.58</ele>
        <time>2020-07-12T09:30:30Z</time>
      </trkpt>
      <trkpt lat="49.62994" lon="4.96414">
        <ele>175.1</ele>
        <time>2020-07-12T09:30:45Z</time>
      </trkpt>
      <trkpt lat="49.63012" lon="4.96426">
        <ele>176.06</ele>
        <time>2020-07-12T09:31:02Z</time>
      </trkpt>
      <trkpt lat="49.63027" lon="4.96436">
        <ele>177.02</ele>
        <time>2020-07-12T09:31:17Z</time>
      </trkpt>
      <trkpt lat="49.63041" lon="4.96445">
        <ele>177.02</ele>
        <time>2020-07-12T09:31:32Z</time>
      </trkpt>
      <trkpt lat="49.63056" lon="4.96456">
        <ele>175.58</ele>
        <time>2020-07-12T09:31:48Z</time>
      </trkpt>
      <trkpt lat="49.63072" lon="4.96467">
        <ele>175.1</ele>
        <time>2020-07-12T09:32:05Z</time>
      </trkpt>
      <trkpt lat="49.63088" lon="4.96478">
        <ele>175.58</ele>
        <time>2020-07-12T09:32:21Z</time>
      </trkpt>
      <trkpt lat="49.63105" lon="4.96488">
        <ele>174.62</ele>
        <time>2020-07-12T09:32:37Z</time>
      </trkpt>
      <trkpt lat="49.63115" lon="4.96493">
        <ele>174.14</ele>
        <time>2020-07-12T09:32:51Z</time>
      </trkpt>
      <trkpt lat="49.63135" lon="4.96506">
        <ele>172.21</ele>
        <time>2020-07-12T09:33:12Z</time>
      </trkpt>
      <trkpt lat="49.63152" lon="4.96514">
        <ele>170.29</ele>
        <time>2020-07-12T09:33:29Z</time>
      </trkpt>
      <trkpt lat="49.63171" lon="4.96527">
        <ele>170.77</ele>
        <time>2020-07-12T09:33:47Z</time>
      </trkpt>
      <trkpt lat="49.6319" lon="4.96537">
        <ele>171.25</ele>
        <time>2020-07-12T09:34:06Z</time>
      </trkpt>
      <trkpt lat="49.63207" lon="4.96547">
        <ele>170.77</ele>
        <time>2020-07-12T09:34:22Z</time>
      </trkpt>
      <trkpt lat="49.63223" lon="4.96559">
        <ele>172.69</ele>
        <time>2020-07-12T09:34:37Z</time>
      </trkpt>
      <trkpt lat="49.63236" lon="4.9657">
        <ele>174.62</ele>
        <time>2020-07-12T09:34:52Z</time>
      </trkpt>
      <trkpt lat="49.63245" lon="4.96578">
        <ele>175.1</ele>
        <time>2020-07-12T09:35:00Z</time>
      </trkpt>
      <trkpt lat="49.63261" lon="4.9659">
        <ele>176.54</ele>
        <time>2020-07-12T09:35:18Z</time>
      </trkpt>
      <trkpt lat="49.63279" lon="4.96604">
        <ele>177.5</ele>
        <time>2020-07-12T09:35:34Z</time>
      </trkpt>
      <trkpt lat="49.6328" lon="4.96606">
        <ele>177.02</ele>
        <time>2020-07-12T09:35:38Z</time>
      </trkpt>
      <trkpt lat="49.63283" lon="4.96619">
        <ele>175.58</ele>
        <time>2020-07-12T09:35:49Z</time>
      </trkpt>
      <trkpt lat="49.63289" lon="4.96647">
        <ele>174.14</ele>
        <time>2020-07-12T09:36:06Z</time>
      </trkpt>
      <trkpt lat="49.63299" lon="4.96665">
        <ele>172.21</ele>
        <time>2020-07-12T09:36:22Z</time>
      </trkpt>
      <trkpt lat="49.6331" lon="4.96681">
        <ele>171.73</ele>
        <time>2020-07-12T09:36:37Z</time>
      </trkpt>
      <trkpt lat="49.63323" lon="4.96701">
        <ele>172.21</ele>
        <time>2020-07-12T09:36:51Z</time>
      </trkpt>
      <trkpt lat="49.63326" lon="4.96708">
        <ele>172.21</ele>
        <time>2020-07-12T09:36:59Z</time>
      </trkpt>
      <trkpt lat="49.6333" lon="4.96735">
        <ele>172.21</ele>
        <time>2020-07-12T09:37:15Z</time>
      </trkpt>
      <trkpt lat="49.63331" lon="4.96753">
        <ele>173.17</ele>
        <time>2020-07-12T09:37:29Z</time>
      </trkpt>
      <trkpt lat="49.63335" lon="4.96776">
        <ele>174.62</ele>
        <time>2020-07-12T09:37:44Z</time>
      </trkpt>
      <trkpt lat="49.63344" lon="4.96798">
        <ele>173.66</ele>
        <time>2020-07-12T09:38:01Z</time>
      </trkpt>
      <trkpt lat="49.63354" lon="4.96816">
        <ele>173.66</ele>
        <time>2020-07-12T09:38:17Z</time>
      </trkpt>
      <trkpt lat="49.63357" lon="4.9682">
        <ele>173.66</ele>
        <time>2020-07-12T09:38:21Z</time>
      </trkpt>
      <trkpt lat="49.63361" lon="4.96826">
        <ele>173.66</ele>
        <time>2020-07-12T09:38:37Z</time>
      </trkpt>
      <trkpt lat="49.63362" lon="4.96828">
        <ele>173.17</ele>
        <time>2020-07-12T09:38:47Z</time>
      </trkpt>
      <trkpt lat="49.63369" lon="4.96839">
        <ele>172.69</ele>
        <time>2020-07-12T09:38:58Z</time>
      </trkpt>
      <trkpt lat="49.6338" lon="4.96854">
        <ele>172.69</ele>
        <time>2020-07-12T09:39:13Z</time>
      </trkpt>
      <trkpt lat="49.6339" lon="4.96864">
        <ele>173.66</ele>
        <time>2020-07-12T09:39:26Z</time>
      </trkpt>
      <trkpt lat="49.63402" lon="4.96877">
        <ele>173.66</ele>
        <time>2020-07-12T09:39:41Z</time>
      </trkpt>
      <trkpt lat="49.63413" lon="4.96889">
        <ele>174.62</ele>
        <time>2020-07-12T09:39:55Z</time>
      </trkpt>
      <trkpt lat="49.63424" lon="4.96902">
        <ele>176.06</ele>
        <time>2020-07-12T09:40:08Z</time>
      </trkpt>
      <trkpt lat="49.63428" lon="4.96905">
        <ele>176.06</ele>
        <time>2020-07-12T09:40:15Z</time>
      </trkpt>
      <trkpt lat="49.63435" lon="4.96916">
        <ele>176.54</ele>
        <time>2020-07-12T09:40:24Z</time>
      </trkpt>
      <trkpt lat="49.63446" lon="4.9693">
        <ele>176.54</ele>
        <time>2020-07-12T09:40:37Z</time>
      </trkpt>
      <trkpt lat="49.63456" lon="4.96947">
        <ele>178.46</ele>
        <time>2020-07-12T09:40:52Z</time>
      </trkpt>
      <trkpt lat="49.63464" lon="4.96965">
        <ele>180.87</ele>
        <time>2020-07-12T09:41:07Z</time>
      </trkpt>
      <trkpt lat="49.63467" lon="4.96986">
        <ele>182.31</ele>
        <time>2020-07-12T09:41:20Z</time>
      </trkpt>
      <trkpt lat="49.63469" lon="4.97003">
        <ele>181.83</ele>
        <time>2020-07-12T09:41:32Z</time>
      </trkpt>
      <trkpt lat="49.63473" lon="4.97022">
        <ele>183.27</ele>
        <time>2020-07-12T09:41:44Z</time>
      </trkpt>
      <trkpt lat="49.63475" lon="4.97026">
        <ele>183.27</ele>
        <time>2020-07-12T09:41:50Z</time>
      </trkpt>
      <trkpt lat="49.6348" lon="4.97044">
        <ele>184.23</ele>
        <time>2020-07-12T09:42:03Z</time>
      </trkpt>
      <trkpt lat="49.63485" lon="4.97063">
        <ele>185.19</ele>
        <time>2020-07-12T09:42:15Z</time>
      </trkpt>
      <trkpt lat="49.6349" lon="4.9708">
        <ele>185.67</ele>
        <time>2020-07-12T09:42:27Z</time>
      </trkpt>
      <trkpt lat="49.63496" lon="4.97101">
        <ele>187.11</ele>
        <time>2020-07-12T09:42:40Z</time>
      </trkpt>
      <trkpt lat="49.63501" lon="4.97116">
        <ele>188.08</ele>
        <time>2020-07-12T09:42:51Z</time>
      </trkpt>
      <trkpt lat="49.63506" lon="4.97135">
        <ele>188.56</ele>
        <time>2020-07-12T09:43:05Z</time>
      </trkpt>
      <trkpt lat="49.63512" lon="4.97158">
        <ele>188.08</ele>
        <time>2020-07-12T09:43:20Z</time>
      </trkpt>
      <trkpt lat="49.63517" lon="4.97176">
        <ele>188.56</ele>
        <time>2020-07-12T09:43:33Z</time>
      </trkpt>
      <trkpt lat="49.63522" lon="4.9719">
        <ele>188.08</ele>
        <time>2020-07-12T09:43:43Z</time>
      </trkpt>
      <trkpt lat="49.63528" lon="4.97211">
        <ele>189.52</ele>
        <time>2020-07-12T09:43:58Z</time>
      </trkpt>
      <trkpt lat="49.63533" lon="4.97233">
        <ele>190</ele>
        <time>2020-07-12T09:44:12Z</time>
      </trkpt>
      <trkpt lat="49.6354" lon="4.97255">
        <ele>189.04</ele>
        <time>2020-07-12T09:44:27Z</time>
      </trkpt>
      <trkpt lat="49.63541" lon="4.97263">
        <ele>188.56</ele>
        <time>2020-07-12T09:44:33Z</time>
      </trkpt>
      <trkpt lat="49.63549" lon="4.97285">
        <ele>187.59</ele>
        <time>2020-07-12T09:44:48Z</time>
      </trkpt>
      <trkpt lat="49.63552" lon="4.97302">
        <ele>187.11</ele>
        <time>2020-07-12T09:45:00Z</time>
      </trkpt>
      <trkpt lat="49.63558" lon="4.97324">
        <ele>186.63</ele>
        <time>2020-07-12T09:45:14Z</time>
      </trkpt>
      <trkpt lat="49.63561" lon="4.97332">
        <ele>186.15</ele>
        <time>2020-07-12T09:45:21Z</time>
      </trkpt>
      <trkpt lat="49.63573" lon="4.97345">
        <ele>187.11</ele>
        <time>2020-07-12T09:45:33Z</time>
      </trkpt>
      <trkpt lat="49.63585" lon="4.97361">
        <ele>188.08</ele>
        <time>2020-07-12T09:45:49Z</time>
      </trkpt>
      <trkpt lat="49.63596" lon="4.97374">
        <ele>188.56</ele>
        <time>2020-07-12T09:46:01Z</time>
      </trkpt>
      <trkpt lat="49.63609" lon="4.97388">
        <ele>189.04</ele>
        <time>2020-07-12T09:46:17Z</time>
      </trkpt>
      <trkpt lat="49.63612" lon="4.9739">
        <ele>188.56</ele>
        <time>2020-07-12T09:46:28Z</time>
      </trkpt>
      <trkpt lat="49.63612" lon="4.97388">
        <ele>187.11</ele>
        <time>2020-07-12T09:46:51Z</time>
      </trkpt>
      <trkpt lat="49.63612" lon="4.97388">
        <ele>186.15</ele>
        <time>2020-07-12T09:47:12Z</time>
      </trkpt>
      <trkpt lat="49.63612" lon="4.97388">
        <ele>185.67</ele>
        <time>2020-07-12T09:47:32Z</time>
      </trkpt>
      <trkpt lat="49.63612" lon="4.97388">
        <ele>184.71</ele>
        <time>2020-07-12T09:47:56Z</time>
      </trkpt>
      <trkpt lat="49.63612" lon="4.97388">
        <ele>184.71</ele>
        <time>2020-07-12T09:48:17Z</time>
      </trkpt>
      <trkpt lat="49.63612" lon="4.97388">
        <ele>184.23</ele>
        <time>2020-07-12T09:48:39Z</time>
      </trkpt>
      <trkpt lat="49.63612" lon="4.97388">
        <ele>183.75</ele>
        <time>2020-07-12T09:49:00Z</time>
      </trkpt>
      <trkpt lat="49.63612" lon="4.97389">
        <ele>183.75</ele>
        <time>2020-07-12T09:49:26Z</time>
      </trkpt>
      <trkpt lat="49.63612" lon="4.97389">
        <ele>183.75</ele>
        <time>2020-07-12T09:49:51Z</time>
      </trkpt>
      <trkpt lat="49.63611" lon="4.97388">
        <ele>184.23</ele>
        <time>2020-07-12T09:50:12Z</time>
      </trkpt>
      <trkpt lat="49.63611" lon="4.97388">
        <ele>184.23</ele>
        <time>2020-07-12T09:50:35Z</time>
      </trkpt>
      <trkpt lat="49.63611" lon="4.97388">
        <ele>184.23</ele>
        <time>2020-07-12T09:51:00Z</time>
      </trkpt>
      <trkpt lat="49.63611" lon="4.97386">
        <ele>184.23</ele>
        <time>2020-07-12T09:51:30Z</time>
      </trkpt>
      <trkpt lat="49.63612" lon="4.97388">
        <ele>183.27</ele>
        <time>2020-07-12T09:51:53Z</time>
      </trkpt>
      <trkpt lat="49.63612" lon="4.97388">
        <ele>183.27</ele>
        <time>2020-07-12T09:52:12Z</time>
      </trkpt>
      <trkpt lat="49.63612" lon="4.97389">
        <ele>183.27</ele>
        <time>2020-07-12T09:52:43Z</time>
      </trkpt>
      <trkpt lat="49.63612" lon="4.97389">
        <ele>183.75</ele>
        <time>2020-07-12T09:53:06Z</time>
      </trkpt>
      <trkpt lat="49.63612" lon="4.97388">
        <ele>183.27</ele>
        <time>2020-07-12T09:53:33Z</time>
      </trkpt>
      <trkpt lat="49.63612" lon="4.97388">
        <ele>183.75</ele>
        <time>2020-07-12T09:53:58Z</time>
      </trkpt>
      <trkpt lat="49.63612" lon="4.97389">
        <ele>182.79</ele>
        <time>2020-07-12T09:54:22Z</time>
      </trkpt>
      <trkpt lat="49.63611" lon="4.9739">
        <ele>183.27</ele>
        <time>2020-07-12T09:54:45Z</time>
      </trkpt>
      <trkpt lat="49.63611" lon="4.9739">
        <ele>182.79</ele>
        <time>2020-07-12T09:55:07Z</time>
      </trkpt>
      <trkpt lat="49.63611" lon="4.9739">
        <ele>183.75</ele>
        <time>2020-07-12T09:55:35Z</time>
      </trkpt>
      <trkpt lat="49.63621" lon="4.974">
        <ele>183.75</ele>
        <time>2020-07-12T09:55:50Z</time>
      </trkpt>
      <trkpt lat="49.6364" lon="4.97423">
        <ele>186.63</ele>
        <time>2020-07-12T09:56:08Z</time>
      </trkpt>
      <trkpt lat="49.63647" lon="4.97439">
        <ele>188.08</ele>
        <time>2020-07-12T09:56:19Z</time>
      </trkpt>
      <trkpt lat="49.63638" lon="4.97462">
        <ele>189.52</ele>
        <time>2020-07-12T09:56:35Z</time>
      </trkpt>
      <trkpt lat="49.63637" lon="4.97468">
        <ele>190</ele>
        <time>2020-07-12T09:56:41Z</time>
      </trkpt>
      <trkpt lat="49.63635" lon="4.97495">
        <ele>192.4</ele>
        <time>2020-07-12T09:56:55Z</time>
      </trkpt>
      <trkpt lat="49.63637" lon="4.97523">
        <ele>191.92</ele>
        <time>2020-07-12T09:57:07Z</time>
      </trkpt>
      <trkpt lat="49.63639" lon="4.97537">
        <ele>190.48</ele>
        <time>2020-07-12T09:57:15Z</time>
      </trkpt>
      <trkpt lat="49.6364" lon="4.9756">
        <ele>187.59</ele>
        <time>2020-07-12T09:57:28Z</time>
      </trkpt>
      <trkpt lat="49.6364" lon="4.97577">
        <ele>187.11</ele>
        <time>2020-07-12T09:57:37Z</time>
      </trkpt>
      <trkpt lat="49.6364" lon="4.97594">
        <ele>187.59</ele>
        <time>2020-07-12T09:57:48Z</time>
      </trkpt>
      <trkpt lat="49.63636" lon="4.97611">
        <ele>186.63</ele>
        <time>2020-07-12T09:58:01Z</time>
      </trkpt>
      <trkpt lat="49.63634" lon="4.97615">
        <ele>186.63</ele>
        <time>2020-07-12T09:58:04Z</time>
      </trkpt>
      <trkpt lat="49.63625" lon="4.97636">
        <ele>188.56</ele>
        <time>2020-07-12T09:58:19Z</time>
      </trkpt>
      <trkpt lat="49.63612" lon="4.97655">
        <ele>182.79</ele>
        <time>2020-07-12T09:58:37Z</time>
      </trkpt>
      <trkpt lat="49.63609" lon="4.97656">
        <ele>177.5</ele>
        <time>2020-07-12T09:58:50Z</time>
      </trkpt>
      <trkpt lat="49.636" lon="4.97663">
        <ele>177.98</ele>
        <time>2020-07-12T09:59:04Z</time>
      </trkpt>
      <trkpt lat="49.63596" lon="4.97669">
        <ele>182.31</ele>
        <time>2020-07-12T09:59:08Z</time>
      </trkpt>
      <trkpt lat="49.63589" lon="4.97677">
        <ele>187.11</ele>
        <time>2020-07-12T09:59:15Z</time>
      </trkpt>
      <trkpt lat="49.63576" lon="4.9769">
        <ele>187.11</ele>
        <time>2020-07-12T09:59:27Z</time>
      </trkpt>
      <trkpt lat="49.63571" lon="4.97696">
        <ele>186.15</ele>
        <time>2020-07-12T09:59:32Z</time>
      </trkpt>
      <trkpt lat="49.63558" lon="4.97716">
        <ele>183.75</ele>
        <time>2020-07-12T09:59:50Z</time>
      </trkpt>
      <trkpt lat="49.63541" lon="4.97745">
        <ele>180.87</ele>
        <time>2020-07-12T10:00:07Z</time>
      </trkpt>
      <trkpt lat="49.63535" lon="4.97757">
        <ele>181.83</ele>
        <time>2020-07-12T10:00:19Z</time>
      </trkpt>
      <trkpt lat="49.63522" lon="4.97776">
        <ele>181.83</ele>
        <time>2020-07-12T10:00:33Z</time>
      </trkpt>
      <trkpt lat="49.6351" lon="4.9779">
        <ele>180.38</ele>
        <time>2020-07-12T10:00:47Z</time>
      </trkpt>
      <trkpt lat="49.63497" lon="4.97805">
        <ele>183.75</ele>
        <time>2020-07-12T10:01:02Z</time>
      </trkpt>
      <trkpt lat="49.63485" lon="4.97817">
        <ele>189.52</ele>
        <time>2020-07-12T10:01:16Z</time>
      </trkpt>
      <trkpt lat="49.63474" lon="4.97833">
        <ele>189.52</ele>
        <time>2020-07-12T10:01:32Z</time>
      </trkpt>
      <trkpt lat="49.63473" lon="4.97837">
        <ele>187.59</ele>
        <time>2020-07-12T10:01:34Z</time>
      </trkpt>
      <trkpt lat="49.63471" lon="4.9785">
        <ele>181.83</ele>
        <time>2020-07-12T10:01:42Z</time>
      </trkpt>
      <trkpt lat="49.63459" lon="4.97864">
        <ele>177.02</ele>
        <time>2020-07-12T10:01:55Z</time>
      </trkpt>
      <trkpt lat="49.63445" lon="4.9788">
        <ele>179.42</ele>
        <time>2020-07-12T10:02:09Z</time>
      </trkpt>
      <trkpt lat="49.63431" lon="4.97896">
        <ele>178.94</ele>
        <time>2020-07-12T10:02:23Z</time>
      </trkpt>
      <trkpt lat="49.6342" lon="4.97902">
        <ele>178.46</ele>
        <time>2020-07-12T10:02:36Z</time>
      </trkpt>
      <trkpt lat="49.63406" lon="4.97911">
        <ele>181.35</ele>
        <time>2020-07-12T10:02:49Z</time>
      </trkpt>
      <trkpt lat="49.63395" lon="4.9792">
        <ele>183.75</ele>
        <time>2020-07-12T10:03:01Z</time>
      </trkpt>
      <trkpt lat="49.63394" lon="4.9792">
        <ele>184.23</ele>
        <time>2020-07-12T10:03:02Z</time>
      </trkpt>
      <trkpt lat="49.63388" lon="4.97927">
        <ele>186.63</ele>
        <time>2020-07-12T10:03:10Z</time>
      </trkpt>
      <trkpt lat="49.63381" lon="4.97943">
        <ele>188.56</ele>
        <time>2020-07-12T10:03:23Z</time>
      </trkpt>
      <trkpt lat="49.63386" lon="4.9795">
        <ele>188.56</ele>
        <time>2020-07-12T10:03:27Z</time>
      </trkpt>
      <trkpt lat="49.63395" lon="4.97966">
        <ele>188.08</ele>
        <time>2020-07-12T10:03:39Z</time>
      </trkpt>
      <trkpt lat="49.634" lon="4.97977">
        <ele>188.08</ele>
        <time>2020-07-12T10:03:47Z</time>
      </trkpt>
      <trkpt lat="49.6341" lon="4.98002">
        <ele>190</ele>
        <time>2020-07-12T10:04:04Z</time>
      </trkpt>
      <trkpt lat="49.63421" lon="4.98023">
        <ele>191.44</ele>
        <time>2020-07-12T10:04:19Z</time>
      </trkpt>
      <trkpt lat="49.63434" lon="4.98041">
        <ele>195.77</ele>
        <time>2020-07-12T10:04:34Z</time>
      </trkpt>
      <trkpt lat="49.63445" lon="4.98048">
        <ele>194.8</ele>
        <time>2020-07-12T10:04:48Z</time>
      </trkpt>
      <trkpt lat="49.63446" lon="4.9805">
        <ele>193.84</ele>
        <time>2020-07-12T10:04:58Z</time>
      </trkpt>
      <trkpt lat="49.63448" lon="4.9805">
        <ele>193.36</ele>
        <time>2020-07-12T10:05:00Z</time>
      </trkpt>
      <trkpt lat="49.63451" lon="4.98048">
        <ele>191.92</ele>
        <time>2020-07-12T10:05:12Z</time>
      </trkpt>
      <trkpt lat="49.63453" lon="4.98042">
        <ele>191.44</ele>
        <time>2020-07-12T10:05:28Z</time>
      </trkpt>
      <trkpt lat="49.63454" lon="4.98015">
        <ele>190</ele>
        <time>2020-07-12T10:05:44Z</time>
      </trkpt>
    </trkseg>
  </trk>
</gpx>